Observation data for Fort Lancaster on 07/11/2020      Previous  Date  Next       Current Mesonet Observations  Soil Data  Daily Summary Page  Observations in Plain Language
KLA1 110500Z 15007KT 33/17 A3001 RMK A01 T03330172  RH  038%=      5-min Rain = 0
KLA1 110501Z 15008KT 33/17 A3001 RMK A01 T03330172  RH  038%=      5-min Rain = 0
KLA1 110502Z 14008KT 33/17 A3001 RMK A01 T03320172  RH  039%=      5-min Rain = 0
KLA1 110503Z 14008KT 33/17 A3001 RMK A01 T03310172  RH  039%=      5-min Rain = 0
KLA1 110504Z 15008KT 33/17 A3001 RMK A01 T03310172  RH  039%=      5-min Rain = 0
KLA1 110505Z 15007KT 33/17 A3001 RMK A01 T03300172  RH  039%=      5-min Rain = 0
KLA1 110506Z 14007KT 33/17 A3001 RMK A01 T03300172  RH  039%=      5-min Rain = 0
KLA1 110507Z 14010KT 33/17 A3001 RMK A01 T03300172  RH  039%=      5-min Rain = 0
KLA1 110508Z 14011KT 33/17 A3001 RMK A01 T03300171  RH  039%=      5-min Rain = 0
KLA1 110509Z 14009KT 33/17 A3001 RMK A01 T03300171  RH  039%=      5-min Rain = 0
KLA1 110510Z 14008KT 33/17 A3001 RMK A01 T03310172  RH  039%=      5-min Rain = 0
KLA1 110511Z 14008KT 33/17 A3001 RMK A01 T03300172  RH  039%=      5-min Rain = 0
KLA1 110512Z 14007KT 33/17 A3001 RMK A01 T03300172  RH  039%=      5-min Rain = 0
KLA1 110513Z 15007KT 33/17 A3001 RMK A01 T03290171  RH  039%=      5-min Rain = 0
KLA1 110514Z 14008KT 33/17 A3001 RMK A01 T03290172  RH  039%=      5-min Rain = 0
KLA1 110515Z 14008KT 33/17 A3001 RMK A01 T03290172  RH  039%=      5-min Rain = 0
KLA1 110516Z 14008KT 33/17 A3001 RMK A01 T03290172  RH  039%=      5-min Rain = 0
KLA1 110517Z 14007KT 33/17 A3001 RMK A01 T03290172  RH  039%=      5-min Rain = 0
KLA1 110518Z 14007KT 33/17 A3001 RMK A01 T03290171  RH  039%=      5-min Rain = 0
KLA1 110519Z 14008KT 33/17 A3001 RMK A01 T03290172  RH  039%=      5-min Rain = 0
KLA1 110520Z 13007KT 33/17 A3001 RMK A01 T03280172  RH  039%=      5-min Rain = 0
KLA1 110521Z 13008KT 33/17 A3001 RMK A01 T03280172  RH  039%=      5-min Rain = 0
KLA1 110522Z 14008KT 33/17 A3001 RMK A01 T03280172  RH  039%=      5-min Rain = 0
KLA1 110523Z 13007KT 33/17 A3001 RMK A01 T03280171  RH  039%=      5-min Rain = 0
KLA1 110524Z 14006KT 33/17 A3001 RMK A01 T03280172  RH  039%=      5-min Rain = 0
KLA1 110525Z 13006KT 33/17 A3001 RMK A01 T03280171  RH  039%=      5-min Rain = 0
KLA1 110526Z 14009KT 33/17 A3001 RMK A01 T03280171  RH  039%=      5-min Rain = 0
KLA1 110527Z 14008KT 33/17 A3001 RMK A01 T03270171  RH  039%=      5-min Rain = 0
KLA1 110528Z 13008KT 33/17 A3001 RMK A01 T03280171  RH  039%=      5-min Rain = 0
KLA1 110529Z 14008KT 33/17 A3001 RMK A01 T03280171  RH  039%=      5-min Rain = 0
KLA1 110530Z 13007KT 33/17 A3001 RMK A01 T03280171  RH  039%=      5-min Rain = 0
KLA1 110531Z 13009KT 33/17 A3001 RMK A01 T03270171  RH  039%=      5-min Rain = 0
KLA1 110532Z 13009KT 33/17 A3001 RMK A01 T03270171  RH  039%=      5-min Rain = 0
KLA1 110533Z 14008KT 33/17 A3001 RMK A01 T03270171  RH  039%=      5-min Rain = 0
KLA1 110534Z 14007KT 33/17 A3001 RMK A01 T03270171  RH  039%=      5-min Rain = 0
KLA1 110535Z 14006KT 33/17 A3001 RMK A01 T03270171  RH  039%=      5-min Rain = 0
KLA1 110536Z 14006KT 33/17 A3001 RMK A01 T03260171  RH  039%=      5-min Rain = 0
KLA1 110537Z 14008KT 33/17 A3001 RMK A01 T03260171  RH  040%=      5-min Rain = 0
KLA1 110538Z 14008KT 33/17 A3001 RMK A01 T03260171  RH  040%=      5-min Rain = 0
KLA1 110539Z 14006KT 33/17 A3001 RMK A01 T03260171  RH  039%=      5-min Rain = 0
KLA1 110540Z 13007KT 33/17 A3001 RMK A01 T03260171  RH  040%=      5-min Rain = 0
KLA1 110541Z 13008KT 33/17 A3001 RMK A01 T03250170  RH  040%=      5-min Rain = 0
KLA1 110542Z 14008KT 33/17 A3001 RMK A01 T03260171  RH  040%=      5-min Rain = 0
KLA1 110543Z 13008KT 33/17 A3001 RMK A01 T03260170  RH  039%=      5-min Rain = 0
KLA1 110544Z 13008KT 33/17 A3001 RMK A01 T03260171  RH  039%=      5-min Rain = 0
KLA1 110545Z 14007KT 33/17 A3001 RMK A01 T03260171  RH  039%=      5-min Rain = 0
KLA1 110546Z 14008KT 33/17 A3001 RMK A01 T03260170  RH  039%=      5-min Rain = 0
KLA1 110547Z 14009KT 33/17 A3001 RMK A01 T03260171  RH  040%=      5-min Rain = 0
KLA1 110548Z 14009KT 33/17 A3001 RMK A01 T03260171  RH  040%=      5-min Rain = 0
KLA1 110549Z 14008KT 33/17 A3001 RMK A01 T03260170  RH  039%=      5-min Rain = 0
KLA1 110550Z 14007KT 33/17 A3001 RMK A01 T03260170  RH  039%=      5-min Rain = 0
KLA1 110551Z 13009KT 33/17 A3001 RMK A01 T03260170  RH  039%=      5-min Rain = 0
KLA1 110552Z 14008KT 33/17 A3001 RMK A01 T03260170  RH  039%=      5-min Rain = 0
KLA1 110553Z 13008KT 33/17 A3001 RMK A01 T03260170  RH  040%=      5-min Rain = 0
KLA1 110554Z 14007KT 33/17 A3001 RMK A01 T03260171  RH  039%=      5-min Rain = 0
KLA1 110555Z 13008KT 33/17 A3001 RMK A01 T03250170  RH  040%=      5-min Rain = 0
KLA1 110556Z 13007KT 33/17 A3001 RMK A01 T03250170  RH  040%=      5-min Rain = 0
KLA1 110557Z 14007KT 33/17 A3001 RMK A01 T03250170  RH  040%=      5-min Rain = 0
KLA1 110558Z 13008KT 32/17 A3001 RMK A01 T03240170  RH  040%=      5-min Rain = 0
KLA1 110559Z 13009KT 32/17 A3001 RMK A01 T03240170  RH  040%=      5-min Rain = 0
KLA1 110600Z 13006KT 32/17 A3001 RMK A01 T03240170  RH  040%=      5-min Rain = 0
KLA1 110601Z 14007KT 32/17 A3001 RMK A01 T03240170  RH  040%=      5-min Rain = 0
KLA1 110602Z 13007KT 32/17 A3001 RMK A01 T03230170  RH  040%=      5-min Rain = 0
KLA1 110603Z 13007KT 32/17 A3001 RMK A01 T03220170  RH  040%=      5-min Rain = 0
KLA1 110604Z 13008KT 32/17 A3001 RMK A01 T03230170  RH  040%=      5-min Rain = 0
KLA1 110605Z 14007KT 32/17 A3001 RMK A01 T03230170  RH  040%=      5-min Rain = 0
KLA1 110606Z 13008KT 32/17 A3002 RMK A01 T03230171  RH  040%=      5-min Rain = 0
KLA1 110607Z 13008KT 32/17 A3002 RMK A01 T03230171  RH  040%=      5-min Rain = 0
KLA1 110608Z 13008KT 32/17 A3002 RMK A01 T03230171  RH  040%=      5-min Rain = 0
KLA1 110609Z 14006KT 32/17 A3002 RMK A01 T03230171  RH  040%=      5-min Rain = 0
KLA1 110610Z 13006KT 32/17 A3002 RMK A01 T03230171  RH  040%=      5-min Rain = 0
KLA1 110611Z 13007KT 32/17 A3002 RMK A01 T03230171  RH  040%=      5-min Rain = 0
KLA1 110612Z 13007KT 32/17 A3002 RMK A01 T03220171  RH  040%=      5-min Rain = 0
KLA1 110613Z 13005KT 32/17 A3002 RMK A01 T03220171  RH  040%=      5-min Rain = 0
KLA1 110614Z 13006KT 32/17 A3002 RMK A01 T03220171  RH  041%=      5-min Rain = 0
KLA1 110615Z 13006KT 32/17 A3002 RMK A01 T03210171  RH  041%=      5-min Rain = 0
KLA1 110616Z 14006KT 32/17 A3002 RMK A01 T03220171  RH  041%=      5-min Rain = 0
KLA1 110617Z 13007KT 32/17 A3002 RMK A01 T03210172  RH  041%=      5-min Rain = 0
KLA1 110618Z 13010KT 32/17 A3002 RMK A01 T03210172  RH  041%=      5-min Rain = 0
KLA1 110619Z 13008KT 32/17 A3002 RMK A01 T03210172  RH  041%=      5-min Rain = 0
KLA1 110620Z 13008KT 32/17 A3002 RMK A01 T03220173  RH  041%=      5-min Rain = 0
KLA1 110621Z 13007KT 32/17 A3002 RMK A01 T03220173  RH  041%=      5-min Rain = 0
KLA1 110622Z 13007KT 32/17 A3002 RMK A01 T03220173  RH  041%=      5-min Rain = 0
KLA1 110623Z 13008KT 32/17 A3002 RMK A01 T03210173  RH  041%=      5-min Rain = 0
KLA1 110624Z 13007KT 32/17 A3002 RMK A01 T03220174  RH  041%=      5-min Rain = 0
KLA1 110625Z 13007KT 32/17 A3002 RMK A01 T03210174  RH  041%=      5-min Rain = 0
KLA1 110626Z 13007KT 32/17 A3002 RMK A01 T03210174  RH  041%=      5-min Rain = 0
KLA1 110627Z 12006KT 32/17 A3002 RMK A01 T03210173  RH  041%=      5-min Rain = 0
KLA1 110628Z 13007KT 32/17 A3002 RMK A01 T03200173  RH  042%=      5-min Rain = 0
KLA1 110629Z 14007KT 32/17 A3002 RMK A01 T03200174  RH  042%=      5-min Rain = 0
KLA1 110630Z 13008KT 32/17 A3002 RMK A01 T03200174  RH  042%=      5-min Rain = 0
KLA1 110631Z 13007KT 32/17 A3002 RMK A01 T03200174  RH  042%=      5-min Rain = 0
KLA1 110632Z 13007KT 32/17 A3002 RMK A01 T03200174  RH  042%=      5-min Rain = 0
KLA1 110633Z 13007KT 32/17 A3002 RMK A01 T03190174  RH  042%=      5-min Rain = 0
KLA1 110634Z 13005KT 32/18 A3001 RMK A01 T03190175  RH  042%=      5-min Rain = 0
KLA1 110635Z 13007KT 32/17 A3001 RMK A01 T03190174  RH  042%=      5-min Rain = 0
KLA1 110636Z 14007KT 32/18 A3002 RMK A01 T03180175  RH  042%=      5-min Rain = 0
KLA1 110637Z 14007KT 32/18 A3002 RMK A01 T03180175  RH  042%=      5-min Rain = 0
KLA1 110638Z 13007KT 32/18 A3002 RMK A01 T03180175  RH  042%=      5-min Rain = 0
KLA1 110639Z 13006KT 32/18 A3002 RMK A01 T03170175  RH  043%=      5-min Rain = 0
KLA1 110640Z 13007KT 32/18 A3002 RMK A01 T03170175  RH  043%=      5-min Rain = 0
KLA1 110641Z 13006KT 32/18 A3002 RMK A01 T03180175  RH  043%=      5-min Rain = 0
KLA1 110642Z 12006KT 32/18 A3002 RMK A01 T03170175  RH  043%=      5-min Rain = 0
KLA1 110643Z 13007KT 32/18 A3002 RMK A01 T03170175  RH  043%=      5-min Rain = 0
KLA1 110644Z 13007KT 32/18 A3002 RMK A01 T03170175  RH  043%=      5-min Rain = 0
KLA1 110645Z 14006KT 32/18 A3002 RMK A01 T03170175  RH  043%=      5-min Rain = 0
KLA1 110646Z 14006KT 32/18 A3002 RMK A01 T03160175  RH  043%=      5-min Rain = 0
KLA1 110647Z 13009KT 32/18 A3002 RMK A01 T03160176  RH  043%=      5-min Rain = 0
KLA1 110648Z 13009KT 32/18 A3002 RMK A01 T03150176  RH  043%=      5-min Rain = 0
KLA1 110649Z 13008KT 32/18 A3002 RMK A01 T03160177  RH  044%=      5-min Rain = 0
KLA1 110650Z 13009KT 32/18 A3002 RMK A01 T03160177  RH  044%=      5-min Rain = 0
KLA1 110651Z 14009KT 32/18 A3002 RMK A01 T03160178  RH  044%=      5-min Rain = 0
KLA1 110652Z 14007KT 32/18 A3002 RMK A01 T03160178  RH  044%=      5-min Rain = 0
KLA1 110653Z 13005KT 32/18 A3002 RMK A01 T03160178  RH  044%=      5-min Rain = 0
KLA1 110654Z 13006KT 32/18 A3002 RMK A01 T03150178  RH  044%=      5-min Rain = 0
KLA1 110655Z 13006KT 32/18 A3002 RMK A01 T03150178  RH  044%=      5-min Rain = 0
KLA1 110656Z 14007KT 31/18 A3001 RMK A01 T03140178  RH  044%=      5-min Rain = 0
KLA1 110657Z 13006KT 31/18 A3001 RMK A01 T03140179  RH  044%=      5-min Rain = 0
KLA1 110658Z 14006KT 31/18 A3001 RMK A01 T03130179  RH  045%=      5-min Rain = 0
KLA1 110659Z 14006KT 31/18 A3001 RMK A01 T03130179  RH  045%=      5-min Rain = 0
KLA1 110700Z 14006KT 31/18 A3001 RMK A01 T03120179  RH  045%=      5-min Rain = 0
KLA1 110701Z 13006KT 31/18 A3002 RMK A01 T03120179  RH  045%=      5-min Rain = 0
KLA1 110702Z 14007KT 31/18 A3002 RMK A01 T03110179  RH  045%=      5-min Rain = 0
KLA1 110703Z 13008KT 31/18 A3001 RMK A01 T03110179  RH  045%=      5-min Rain = 0
KLA1 110704Z 13007KT 31/18 A3002 RMK A01 T03120179  RH  045%=      5-min Rain = 0
KLA1 110705Z 13008KT 31/18 A3002 RMK A01 T03110179  RH  045%=      5-min Rain = 0
KLA1 110706Z 13007KT 31/18 A3002 RMK A01 T03110179  RH  045%=      5-min Rain = 0
KLA1 110707Z 13006KT 31/18 A3002 RMK A01 T03120180  RH  045%=      5-min Rain = 0
KLA1 110708Z 14006KT 31/18 A3002 RMK A01 T03110180  RH  046%=      5-min Rain = 0
KLA1 110709Z 14005KT 31/18 A3002 RMK A01 T03110180  RH  046%=      5-min Rain = 0
KLA1 110710Z 14007KT 31/18 A3002 RMK A01 T03100180  RH  046%=      5-min Rain = 0
KLA1 110711Z 14007KT 31/18 A3002 RMK A01 T03100180  RH  046%=      5-min Rain = 0
KLA1 110712Z 14006KT 31/18 A3002 RMK A01 T03100180  RH  046%=      5-min Rain = 0
KLA1 110713Z 14006KT 31/18 A3002 RMK A01 T03090180  RH  046%=      5-min Rain = 0
KLA1 110714Z 14006KT 31/18 A3002 RMK A01 T03090180  RH  046%=      5-min Rain = 0
KLA1 110715Z 14006KT 31/18 A3002 RMK A01 T03080180  RH  046%=      5-min Rain = 0
KLA1 110716Z 14006KT 31/18 A3002 RMK A01 T03080180  RH  047%=      5-min Rain = 0
KLA1 110717Z 15006KT 31/18 A3002 RMK A01 T03070180  RH  047%=      5-min Rain = 0
KLA1 110718Z 14006KT 31/18 A3001 RMK A01 T03070181  RH  047%=      5-min Rain = 0
KLA1 110719Z 15006KT 31/18 A3001 RMK A01 T03060180  RH  047%=      5-min Rain = 0
KLA1 110720Z 15006KT 31/18 A3001 RMK A01 T03060181  RH  047%=      5-min Rain = 0
KLA1 110721Z 15006KT 31/18 A3001 RMK A01 T03060181  RH  047%=      5-min Rain = 0
KLA1 110722Z 15007KT 31/18 A3001 RMK A01 T03050182  RH  048%=      5-min Rain = 0
KLA1 110723Z 15007KT 31/18 A3001 RMK A01 T03050182  RH  048%=      5-min Rain = 0
KLA1 110724Z 15006KT 31/18 A3001 RMK A01 T03050184  RH  048%=      5-min Rain = 0
KLA1 110725Z 14006KT 31/19 A3001 RMK A01 T03060185  RH  049%=      5-min Rain = 0
KLA1 110726Z 15005KT 31/19 A3001 RMK A01 T03060186  RH  049%=      5-min Rain = 0
KLA1 110727Z 15006KT 31/19 A3001 RMK A01 T03050186  RH  049%=      5-min Rain = 0
KLA1 110728Z 14006KT 31/19 A3001 RMK A01 T03050186  RH  049%=      5-min Rain = 0
KLA1 110729Z 14006KT 30/19 A3001 RMK A01 T03040187  RH  050%=      5-min Rain = 0
KLA1 110730Z 14007KT 31/19 A3001 RMK A01 T03050189  RH  050%=      5-min Rain = 0
KLA1 110731Z 14006KT 31/19 A3001 RMK A01 T03050190  RH  050%=      5-min Rain = 0
KLA1 110732Z 14006KT 30/19 A3001 RMK A01 T03040190  RH  050%=      5-min Rain = 0
KLA1 110733Z 15008KT 30/19 A3001 RMK A01 T03040192  RH  051%=      5-min Rain = 0
KLA1 110734Z 14008KT 31/19 A3001 RMK A01 T03050194  RH  052%=      5-min Rain = 0
KLA1 110735Z 15008KT 31/20 A3001 RMK A01 T03050195  RH  052%=      5-min Rain = 0
KLA1 110736Z 16009KT 31/20 A3001 RMK A01 T03050197  RH  053%=      5-min Rain = 0
KLA1 110737Z 15009KT 31/20 A3001 RMK A01 T03060199  RH  053%=      5-min Rain = 0
KLA1 110738Z 15010KT 31/20 A3001 RMK A01 T03060201  RH  054%=      5-min Rain = 0
KLA1 110739Z 14009KT 31/20 A3001 RMK A01 T03050200  RH  053%=      5-min Rain = 0
KLA1 110740Z 15008G13KT 31/20 A30 RMK A01 T03050202  RH  054%=      5-min Rain = 0
KLA1 110741Z 15008KT 31/20 A30 RMK A01 T03050204  RH  055%=      5-min Rain = 0
KLA1 110742Z 14007KT 31/21 A30 RMK A01 T03060205  RH  055%=      5-min Rain = 0
KLA1 110743Z 14009KT 31/21 A30 RMK A01 T03050205  RH  055%=      5-min Rain = 0
KLA1 110744Z 15011KT 31/21 A30 RMK A01 T03050207  RH  056%=      5-min Rain = 0
KLA1 110745Z 15010KT 31/21 A30 RMK A01 T03050207  RH  056%=      5-min Rain = 0
KLA1 110746Z 15009G15KT 31/21 A30 RMK A01 T03050207  RH  056%=      5-min Rain = 0
KLA1 110747Z 15012KT 31/21 A30 RMK A01 T03050209  RH  057%=      5-min Rain = 0
KLA1 110748Z 15010KT 31/21 A30 RMK A01 T03050210  RH  057%=      5-min Rain = 0
KLA1 110749Z 15012KT 31/21 A30 RMK A01 T03050210  RH  057%=      5-min Rain = 0
KLA1 110750Z 15010G15KT 31/21 A30 RMK A01 T03050212  RH  058%=      5-min Rain = 0
KLA1 110751Z 14012KT 31/21 A30 RMK A01 T03050213  RH  058%=      5-min Rain = 0
KLA1 110752Z 15011KT 31/21 A30 RMK A01 T03050214  RH  059%=      5-min Rain = 0
KLA1 110753Z 14010KT 30/22 A30 RMK A01 T03040215  RH  059%=      5-min Rain = 0
KLA1 110754Z 14013KT 30/22 A30 RMK A01 T03040215  RH  059%=      5-min Rain = 0
KLA1 110755Z 14012G17KT 30/22 A30 RMK A01 T03040216  RH  059%=      5-min Rain = 0
KLA1 110756Z 13011KT 30/22 A30 RMK A01 T03040216  RH  059%=      5-min Rain = 0
KLA1 110757Z 13013KT 30/22 A30 RMK A01 T03040216  RH  059%=      5-min Rain = 0
KLA1 110758Z 14011G16KT 30/22 A30 RMK A01 T03040217  RH  060%=      5-min Rain = 0
KLA1 110759Z 15014G19KT 30/22 A30 RMK A01 T03030217  RH  060%=      5-min Rain = 0
KLA1 110800Z 14011KT 30/22 A3001 RMK A01 T03040217  RH  060%=      5-min Rain = 0
KLA1 110801Z 14011G16KT 30/22 A3001 RMK A01 T03040217  RH  060%=      5-min Rain = 0
KLA1 110802Z 14010G15KT 30/22 A3001 RMK A01 T03040218  RH  060%=      5-min Rain = 0
KLA1 110803Z 14009KT 30/22 A3001 RMK A01 T03040218  RH  060%=      5-min Rain = 0
KLA1 110804Z 13006KT 30/22 A3001 RMK A01 T03030218  RH  060%=      5-min Rain = 0
KLA1 110805Z 13006KT 30/22 A3001 RMK A01 T03030218  RH  060%=      5-min Rain = 0
KLA1 110806Z 13006KT 30/22 A3001 RMK A01 T03020218  RH  061%=      5-min Rain = 0
KLA1 110807Z 14008KT 30/22 A3001 RMK A01 T03010218  RH  061%=      5-min Rain = 0
KLA1 110808Z 13007KT 30/22 A3001 RMK A01 T03010218  RH  061%=      5-min Rain = 0
KLA1 110809Z 12007KT 30/22 A3001 RMK A01 T03010218  RH  061%=      5-min Rain = 0
KLA1 110810Z 13008KT 30/22 A3001 RMK A01 T03010219  RH  062%=      5-min Rain = 0
KLA1 110811Z 13008KT 30/22 A3001 RMK A01 T03000219  RH  062%=      5-min Rain = 0
KLA1 110812Z 13009KT 30/22 A3001 RMK A01 T03000220  RH  062%=      5-min Rain = 0
KLA1 110813Z 13010KT 30/22 A3001 RMK A01 T03000220  RH  062%=      5-min Rain = 0
KLA1 110814Z 12012KT 30/22 A3001 RMK A01 T03000220  RH  062%=      5-min Rain = 0
KLA1 110815Z 13010KT 30/22 A3001 RMK A01 T03000220  RH  062%=      5-min Rain = 0
KLA1 110816Z 13012KT 30/22 A3001 RMK A01 T03000220  RH  062%=      5-min Rain = 0
KLA1 110817Z 15010KT 30/22 A3001 RMK A01 T03000221  RH  063%=      5-min Rain = 0
KLA1 110818Z 13009KT 30/22 A3001 RMK A01 T03000221  RH  063%=      5-min Rain = 0
KLA1 110819Z 14013KT 30/22 A3001 RMK A01 T03000222  RH  063%=      5-min Rain = 0
KLA1 110820Z 14011KT 30/22 A3001 RMK A01 T02990222  RH  063%=      5-min Rain = 0
KLA1 110821Z 13012KT 30/22 A3001 RMK A01 T03000222  RH  063%=      5-min Rain = 0
KLA1 110822Z 14011KT 30/22 A3001 RMK A01 T03000223  RH  063%=      5-min Rain = 0
KLA1 110823Z 14010KT 30/22 A3001 RMK A01 T02990223  RH  063%=      5-min Rain = 0
KLA1 110824Z 14011KT 30/22 A30 RMK A01 T02990223  RH  064%=      5-min Rain = 0
KLA1 110825Z 14013KT 30/22 A30 RMK A01 T02980223  RH  064%=      5-min Rain = 0
KLA1 110826Z 14014KT 30/22 A30 RMK A01 T02980223  RH  064%=      5-min Rain = 0
KLA1 110827Z 14012KT 30/22 A30 RMK A01 T02990223  RH  064%=      5-min Rain = 0
KLA1 110828Z 14010KT 30/22 A30 RMK A01 T02990223  RH  064%=      5-min Rain = 0
KLA1 110829Z 13009KT 30/22 A30 RMK A01 T02980223  RH  064%=      5-min Rain = 0
KLA1 110830Z 14014KT 30/22 A30 RMK A01 T02980223  RH  064%=      5-min Rain = 0
KLA1 110831Z 14012KT 30/22 A30 RMK A01 T02980223  RH  064%=      5-min Rain = 0
KLA1 110832Z 13012KT 30/22 A30 RMK A01 T02980223  RH  064%=      5-min Rain = 0
KLA1 110833Z 14010KT 30/22 A30 RMK A01 T02980223  RH  064%=      5-min Rain = 0
KLA1 110834Z 14008KT 30/22 A30 RMK A01 T02970223  RH  064%=      5-min Rain = 0
KLA1 110835Z 14012G17KT 30/22 A30 RMK A01 T02970223  RH  065%=      5-min Rain = 0
KLA1 110836Z 14012KT 30/22 A30 RMK A01 T02970224  RH  065%=      5-min Rain = 0
KLA1 110837Z 14010KT 30/22 A30 RMK A01 T02970223  RH  065%=      5-min Rain = 0
KLA1 110838Z 15010KT 30/22 A30 RMK A01 T02960223  RH  065%=      5-min Rain = 0
KLA1 110839Z 14010KT 30/22 A30 RMK A01 T02960224  RH  065%=      5-min Rain = 0
KLA1 110840Z 14009KT 30/22 A30 RMK A01 T02960224  RH  065%=      5-min Rain = 0
KLA1 110841Z 14010KT 30/22 A30 RMK A01 T02960224  RH  065%=      5-min Rain = 0
KLA1 110842Z 14010KT 30/22 A30 RMK A01 T02960224  RH  065%=      5-min Rain = 0
KLA1 110843Z 13012KT 30/22 A30 RMK A01 T02950224  RH  065%=      5-min Rain = 0
KLA1 110844Z 14013KT 30/22 A30 RMK A01 T02950224  RH  065%=      5-min Rain = 0
KLA1 110845Z 14014KT 30/22 A30 RMK A01 T02960224  RH  066%=      5-min Rain = 0
KLA1 110846Z 15015KT 30/22 A30 RMK A01 T02950224  RH  066%=      5-min Rain = 0
KLA1 110847Z 15014KT 30/22 A30 RMK A01 T02950224  RH  066%=      5-min Rain = 0
KLA1 110848Z 14011G17KT 30/22 A30 RMK A01 T02950224  RH  066%=      5-min Rain = 0
KLA1 110849Z 14013KT 30/22 A30 RMK A01 T02950224  RH  066%=      5-min Rain = 0
KLA1 110850Z 14014KT 30/22 A30 RMK A01 T02950224  RH  066%=      5-min Rain = 0
KLA1 110851Z 14013KT 30/23 A30 RMK A01 T02950225  RH  066%=      5-min Rain = 0
KLA1 110852Z 15013KT 30/23 A30 RMK A01 T02950225  RH  066%=      5-min Rain = 0
KLA1 110853Z 14011KT 29/23 A30 RMK A01 T02940225  RH  066%=      5-min Rain = 0
KLA1 110854Z 13009KT 29/22 A30 RMK A01 T02940224  RH  066%=      5-min Rain = 0
KLA1 110855Z 14009KT 29/22 A30 RMK A01 T02930224  RH  066%=      5-min Rain = 0
KLA1 110856Z 14010KT 29/22 A30 RMK A01 T02930224  RH  067%=      5-min Rain = 0
KLA1 110857Z 13009KT 29/23 A30 RMK A01 T02930225  RH  067%=      5-min Rain = 0
KLA1 110858Z 13009KT 29/23 A30 RMK A01 T02930225  RH  067%=      5-min Rain = 0
KLA1 110859Z 13012KT 29/23 A30 RMK A01 T02920225  RH  067%=      5-min Rain = 0
KLA1 110900Z 14011KT 29/23 A30 RMK A01 T02920225  RH  067%=      5-min Rain = 0
KLA1 110901Z 13011KT 29/23 A30 RMK A01 T02920225  RH  067%=      5-min Rain = 0
KLA1 110902Z 14010KT 29/23 A30 RMK A01 T02920225  RH  067%=      5-min Rain = 0
KLA1 110903Z 14009KT 29/23 A30 RMK A01 T02920225  RH  067%=      5-min Rain = 0
KLA1 110904Z 14009KT 29/23 A30 RMK A01 T02920225  RH  067%=      5-min Rain = 0
KLA1 110905Z 13009KT 29/23 A30 RMK A01 T02910225  RH  068%=      5-min Rain = 0
KLA1 110906Z 13008KT 29/23 A30 RMK A01 T02910226  RH  068%=      5-min Rain = 0
KLA1 110907Z 11007KT 29/23 A30 RMK A01 T02910225  RH  068%=      5-min Rain = 0
KLA1 110908Z 14006G11KT 29/23 A30 RMK A01 T02900225  RH  068%=      5-min Rain = 0
KLA1 110909Z 13008G13KT 29/23 A30 RMK A01 T02900226  RH  068%=      5-min Rain = 0
KLA1 110910Z 14015KT 29/23 A30 RMK A01 T02890226  RH  068%=      5-min Rain = 0
KLA1 110911Z 14012G17KT 29/23 A30 RMK A01 T02890226  RH  069%=      5-min Rain = 0
KLA1 110912Z 13014G22KT 29/23 A30 RMK A01 T02900226  RH  068%=      5-min Rain = 0
KLA1 110913Z 15015KT 29/23 A30 RMK A01 T02900226  RH  069%=      5-min Rain = 0
KLA1 110914Z 14013KT 29/23 A30 RMK A01 T02900227  RH  069%=      5-min Rain = 0
KLA1 110915Z 14011KT 29/23 A30 RMK A01 T02900227  RH  069%=      5-min Rain = 0
KLA1 110916Z 14011KT 29/23 A30 RMK A01 T02900227  RH  069%=      5-min Rain = 0
KLA1 110917Z 14010G15KT 29/23 A30 RMK A01 T02890227  RH  069%=      5-min Rain = 0
KLA1 110918Z 13012G17KT 29/23 A30 RMK A01 T02890227  RH  069%=      5-min Rain = 0
KLA1 110919Z 14011KT 29/23 A30 RMK A01 T02890227  RH  069%=      5-min Rain = 0
KLA1 110920Z 13010KT 29/23 A30 RMK A01 T02890228  RH  070%=      5-min Rain = 0
KLA1 110921Z 14010KT 29/23 A30 RMK A01 T02880228  RH  070%=      5-min Rain = 0
KLA1 110922Z 14014G19KT 29/23 A30 RMK A01 T02880228  RH  070%=      5-min Rain = 0
KLA1 110923Z 14011KT 29/23 A30 RMK A01 T02880228  RH  070%=      5-min Rain = 0
KLA1 110924Z 14012KT 29/23 A30 RMK A01 T02880228  RH  070%=      5-min Rain = 0
KLA1 110925Z 13012KT 29/23 A30 RMK A01 T02880228  RH  070%=      5-min Rain = 0
KLA1 110926Z 13010KT 29/23 A30 RMK A01 T02880228  RH  070%=      5-min Rain = 0
KLA1 110927Z 14012KT 29/23 A30 RMK A01 T02870228  RH  070%=      5-min Rain = 0
KLA1 110928Z 13010KT 29/23 A30 RMK A01 T02870228  RH  070%=      5-min Rain = 0
KLA1 110929Z 13012KT 29/23 A30 RMK A01 T02870228  RH  071%=      5-min Rain = 0
KLA1 110930Z 14015KT 29/23 A30 RMK A01 T02860228  RH  071%=      5-min Rain = 0
KLA1 110931Z 14013G19KT 29/23 A30 RMK A01 T02860228  RH  071%=      5-min Rain = 0
KLA1 110932Z 14016KT 29/23 A30 RMK A01 T02860228  RH  071%=      5-min Rain = 0
KLA1 110933Z 14015KT 29/23 A30 RMK A01 T02860228  RH  071%=      5-min Rain = 0
KLA1 110934Z 13014KT 29/23 A30 RMK A01 T02860228  RH  071%=      5-min Rain = 0
KLA1 110935Z 14013G18KT 29/23 A30 RMK A01 T02860228  RH  071%=      5-min Rain = 0
KLA1 110936Z 14013KT 29/23 A30 RMK A01 T02860229  RH  071%=      5-min Rain = 0
KLA1 110937Z 14013G18KT 29/23 A30 RMK A01 T02860229  RH  071%=      5-min Rain = 0
KLA1 110938Z 14015KT 29/23 A30 RMK A01 T02870229  RH  071%=      5-min Rain = 0
KLA1 110939Z 14016KT 29/23 A30 RMK A01 T02860229  RH  071%=      5-min Rain = 0
KLA1 110940Z 14016KT 29/23 A30 RMK A01 T02860229  RH  071%=      5-min Rain = 0
KLA1 110941Z 14013KT 29/23 A30 RMK A01 T02860229  RH  071%=      5-min Rain = 0
KLA1 110942Z 15013G18KT 29/23 A30 RMK A01 T02860229  RH  071%=      5-min Rain = 0
KLA1 110943Z 14014G20KT 29/23 A30 RMK A01 T02850229  RH  071%=      5-min Rain = 0
KLA1 110944Z 14011KT 29/23 A30 RMK A01 T02850229  RH  071%=      5-min Rain = 0
KLA1 110945Z 14010KT 29/23 A30 RMK A01 T02850229  RH  072%=      5-min Rain = 0
KLA1 110946Z 13010KT 28/23 A30 RMK A01 T02840229  RH  072%=      5-min Rain = 0
KLA1 110947Z 14013KT 28/23 A30 RMK A01 T02840229  RH  072%=      5-min Rain = 0
KLA1 110948Z 14013KT 28/23 A30 RMK A01 T02840229  RH  072%=      5-min Rain = 0
KLA1 110949Z 14014KT 28/23 A30 RMK A01 T02840229  RH  072%=      5-min Rain = 0
KLA1 110950Z 14014G19KT 28/23 A30 RMK A01 T02840229  RH  072%=      5-min Rain = 0
KLA1 110951Z 14012KT 28/23 A30 RMK A01 T02840229  RH  072%=      5-min Rain = 0
KLA1 110952Z 13016G22KT 28/23 A30 RMK A01 T02840229  RH  072%=      5-min Rain = 0
KLA1 110953Z 14013G18KT 28/23 A30 RMK A01 T02830228  RH  072%=      5-min Rain = 0
KLA1 110954Z 14016G22KT 28/23 A30 RMK A01 T02830228  RH  072%=      5-min Rain = 0
KLA1 110955Z 14014KT 28/23 A30 RMK A01 T02840228  RH  072%=      5-min Rain = 0
KLA1 110956Z 13012KT 28/23 A30 RMK A01 T02830228  RH  072%=      5-min Rain = 0
KLA1 110957Z 13010KT 28/23 A30 RMK A01 T02830229  RH  072%=      5-min Rain = 0
KLA1 110958Z 13011KT 28/23 A30 RMK A01 T02830228  RH  072%=      5-min Rain = 0
KLA1 110959Z 14015G20KT 28/23 A30 RMK A01 T02830229  RH  072%=      5-min Rain = 0
KLA1 111000Z 14011KT 28/23 A30 RMK A01 T02830228  RH  072%=      5-min Rain = 0
KLA1 111001Z 14012KT 28/23 A30 RMK A01 T02830228  RH  072%=      5-min Rain = 0
KLA1 111002Z 13011KT 28/23 A30 RMK A01 T02830228  RH  072%=      5-min Rain = 0
KLA1 111003Z 14010KT 28/23 A30 RMK A01 T02820228  RH  072%=      5-min Rain = 0
KLA1 111004Z 13013KT 28/23 A30 RMK A01 T02820228  RH  073%=      5-min Rain = 0
KLA1 111005Z 14011KT 28/23 A30 RMK A01 T02820228  RH  073%=      5-min Rain = 0
KLA1 111006Z 13010KT 28/23 A30 RMK A01 T02820228  RH  073%=      5-min Rain = 0
KLA1 111007Z 13010KT 28/23 A30 RMK A01 T02820228  RH  073%=      5-min Rain = 0
KLA1 111008Z 13010KT 28/23 A30 RMK A01 T02810228  RH  073%=      5-min Rain = 0
KLA1 111009Z 14011KT 28/23 A30 RMK A01 T02810228  RH  073%=      5-min Rain = 0
KLA1 111010Z 14011KT 28/23 A30 RMK A01 T02810228  RH  073%=      5-min Rain = 0
KLA1 111011Z 13009KT 28/23 A30 RMK A01 T02810228  RH  073%=      5-min Rain = 0
KLA1 111012Z 14007G12KT 28/23 A30 RMK A01 T02800227  RH  073%=      5-min Rain = 0
KLA1 111013Z 13010KT 28/23 A30 RMK A01 T02800228  RH  073%=      5-min Rain = 0
KLA1 111014Z 13009KT 28/23 A30 RMK A01 T02800228  RH  073%=      5-min Rain = 0
KLA1 111015Z 14010G15KT 28/23 A30 RMK A01 T02800228  RH  073%=      5-min Rain = 0
KLA1 111016Z 13012KT 28/23 A30 RMK A01 T02800227  RH  073%=      5-min Rain = 0
KLA1 111017Z 14011KT 28/23 A30 RMK A01 T02800227  RH  073%=      5-min Rain = 0
KLA1 111018Z 14008KT 28/23 A30 RMK A01 T02800227  RH  073%=      5-min Rain = 0
KLA1 111019Z 13012KT 28/23 A30 RMK A01 T02800227  RH  073%=      5-min Rain = 0
KLA1 111020Z 13011KT 28/23 A30 RMK A01 T02800227  RH  073%=      5-min Rain = 0
KLA1 111021Z 14010KT 28/23 A30 RMK A01 T02800227  RH  073%=      5-min Rain = 0
KLA1 111022Z 13010KT 28/23 A30 RMK A01 T02800227  RH  073%=      5-min Rain = 0
KLA1 111023Z 14012KT 28/23 A30 RMK A01 T02800227  RH  073%=      5-min Rain = 0
KLA1 111024Z 13008KT 28/23 A30 RMK A01 T02800227  RH  073%=      5-min Rain = 0
KLA1 111025Z 13009KT 28/23 A30 RMK A01 T02790227  RH  073%=      5-min Rain = 0
KLA1 111026Z 13008KT 28/23 A30 RMK A01 T02790227  RH  073%=      5-min Rain = 0
KLA1 111027Z 13009KT 28/23 A30 RMK A01 T02790227  RH  073%=      5-min Rain = 0
KLA1 111028Z 13009KT 28/23 A30 RMK A01 T02790227  RH  073%=      5-min Rain = 0
KLA1 111029Z 13011KT 28/23 A30 RMK A01 T02780226  RH  073%=      5-min Rain = 0
KLA1 111030Z 12007KT 28/23 A30 RMK A01 T02790226  RH  073%=      5-min Rain = 0
KLA1 111031Z 14010KT 28/23 A30 RMK A01 T02780226  RH  073%=      5-min Rain = 0
KLA1 111032Z 13011G16KT 28/23 A3001 RMK A01 T02780226  RH  073%=      5-min Rain = 0
KLA1 111033Z 13010KT 28/23 A3001 RMK A01 T02780226  RH  073%=      5-min Rain = 0
KLA1 111034Z 14013KT 28/23 A3001 RMK A01 T02790225  RH  073%=      5-min Rain = 0
KLA1 111035Z 13009KT 28/23 A3001 RMK A01 T02790225  RH  072%=      5-min Rain = 0
KLA1 111036Z 12007KT 28/23 A3001 RMK A01 T02790225  RH  073%=      5-min Rain = 0
KLA1 111037Z 12007KT 28/23 A3001 RMK A01 T02790226  RH  073%=      5-min Rain = 0
KLA1 111038Z 12009KT 28/23 A3001 RMK A01 T02790226  RH  073%=      5-min Rain = 0
KLA1 111039Z 13009KT 28/23 A3001 RMK A01 T02780226  RH  073%=      5-min Rain = 0
KLA1 111040Z 13010KT 28/23 A3001 RMK A01 T02780226  RH  073%=      5-min Rain = 0
KLA1 111041Z 12009KT 28/23 A3001 RMK A01 T02780226  RH  073%=      5-min Rain = 0
KLA1 111042Z 12008KT 28/23 A3001 RMK A01 T02780226  RH  073%=      5-min Rain = 0
KLA1 111043Z 12007KT 28/23 A3001 RMK A01 T02780226  RH  073%=      5-min Rain = 0
KLA1 111044Z 12007KT 28/23 A3002 RMK A01 T02770226  RH  073%=      5-min Rain = 0
KLA1 111045Z 12008G13KT 28/23 A3002 RMK A01 T02770225  RH  073%=      5-min Rain = 0
KLA1 111046Z 12009G14KT 28/23 A3002 RMK A01 T02770225  RH  073%=      5-min Rain = 0
KLA1 111047Z 12011KT 28/23 A3002 RMK A01 T02770225  RH  073%=      5-min Rain = 0
KLA1 111048Z 12009KT 28/23 A3002 RMK A01 T02770225  RH  073%=      5-min Rain = 0
KLA1 111049Z 12010KT 28/23 A3002 RMK A01 T02770225  RH  073%=      5-min Rain = 0
KLA1 111050Z 12009KT 28/23 A3002 RMK A01 T02780226  RH  073%=      5-min Rain = 0
KLA1 111051Z 12010KT 28/23 A3002 RMK A01 T02770225  RH  073%=      5-min Rain = 0
KLA1 111052Z 13008KT 28/23 A3002 RMK A01 T02780225  RH  073%=      5-min Rain = 0
KLA1 111053Z 13007KT 28/23 A3002 RMK A01 T02770225  RH  073%=      5-min Rain = 0
KLA1 111054Z 13010KT 28/23 A3002 RMK A01 T02770225  RH  073%=      5-min Rain = 0
KLA1 111055Z 13008KT 28/23 A3002 RMK A01 T02770225  RH  074%=      5-min Rain = 0
KLA1 111056Z 13009KT 28/23 A3002 RMK A01 T02760225  RH  074%=      5-min Rain = 0
KLA1 111057Z 13007KT 28/23 A3002 RMK A01 T02760225  RH  074%=      5-min Rain = 0
KLA1 111058Z 12006KT 28/23 A3002 RMK A01 T02760225  RH  074%=      5-min Rain = 0
KLA1 111059Z 12007KT 28/23 A3002 RMK A01 T02750225  RH  074%=      5-min Rain = 0
KLA1 111100Z 12008KT 28/23 A3002 RMK A01 T02750225  RH  074%=      5-min Rain = 0
KLA1 111101Z 12009KT 28/23 A3002 RMK A01 T02750225  RH  074%=      5-min Rain = 0
KLA1 111102Z 13009KT 28/23 A3002 RMK A01 T02750225  RH  074%=      5-min Rain = 0
KLA1 111103Z 13007KT 28/22 A3002 RMK A01 T02750224  RH  074%=      5-min Rain = 0
KLA1 111104Z 13008KT 28/22 A3002 RMK A01 T02750224  RH  074%=      5-min Rain = 0
KLA1 111105Z 12006KT 28/23 A3002 RMK A01 T02750225  RH  074%=      5-min Rain = 0
KLA1 111106Z 12006KT 27/23 A3002 RMK A01 T02740225  RH  074%=      5-min Rain = 0
KLA1 111107Z 13006KT 27/23 A3002 RMK A01 T02740225  RH  074%=      5-min Rain = 0
KLA1 111108Z 13007KT 27/22 A3002 RMK A01 T02730224  RH  074%=      5-min Rain = 0
KLA1 111109Z 13008KT 27/23 A3002 RMK A01 T02730225  RH  075%=      5-min Rain = 0
KLA1 111110Z 12009G14KT 27/22 A3003 RMK A01 T02730224  RH  075%=      5-min Rain = 0
KLA1 111111Z 12008KT 27/23 A3003 RMK A01 T02730225  RH  075%=      5-min Rain = 0
KLA1 111112Z 13007KT 27/23 A3003 RMK A01 T02740225  RH  075%=      5-min Rain = 0
KLA1 111113Z 13009KT 27/22 A3003 RMK A01 T02730224  RH  075%=      5-min Rain = 0
KLA1 111114Z 12008KT 27/22 A3003 RMK A01 T02730224  RH  075%=      5-min Rain = 0
KLA1 111115Z 13008KT 27/22 A3003 RMK A01 T02730224  RH  074%=      5-min Rain = 0
KLA1 111116Z 12008KT 27/22 A3003 RMK A01 T02730224  RH  074%=      5-min Rain = 0
KLA1 111117Z 12009G14KT 27/22 A3003 RMK A01 T02730224  RH  075%=      5-min Rain = 0
KLA1 111118Z 13011KT 27/22 A3003 RMK A01 T02730224  RH  075%=      5-min Rain = 0
KLA1 111119Z 12008KT 27/22 A3003 RMK A01 T02740224  RH  074%=      5-min Rain = 0
KLA1 111120Z 13010KT 27/22 A3003 RMK A01 T02730224  RH  074%=      5-min Rain = 0
KLA1 111121Z 12008KT 27/22 A3003 RMK A01 T02730224  RH  074%=      5-min Rain = 0
KLA1 111122Z 12008KT 27/22 A3003 RMK A01 T02730224  RH  074%=      5-min Rain = 0
KLA1 111123Z 13007KT 27/22 A3003 RMK A01 T02730224  RH  075%=      5-min Rain = 0
KLA1 111124Z 13009G14KT 27/22 A3003 RMK A01 T02730224  RH  075%=      5-min Rain = 0
KLA1 111125Z 13009G14KT 27/22 A3003 RMK A01 T02720224  RH  075%=      5-min Rain = 0
KLA1 111126Z 13009KT 27/22 A3003 RMK A01 T02720224  RH  075%=      5-min Rain = 0
KLA1 111127Z 13009KT 27/22 A3003 RMK A01 T02720224  RH  075%=      5-min Rain = 0
KLA1 111128Z 13007KT 27/22 A3003 RMK A01 T02720224  RH  075%=      5-min Rain = 0
KLA1 111129Z 12007KT 27/22 A3003 RMK A01 T02720224  RH  075%=      5-min Rain = 0
KLA1 111130Z 13008KT 27/22 A3003 RMK A01 T02720224  RH  075%=      5-min Rain = 0
KLA1 111131Z 13008KT 27/22 A3003 RMK A01 T02710224  RH  075%=      5-min Rain = 0
KLA1 111132Z 13010KT 27/22 A3003 RMK A01 T02710224  RH  075%=      5-min Rain = 0
KLA1 111133Z 12009KT 27/22 A3003 RMK A01 T02710223  RH  075%=      5-min Rain = 0
KLA1 111134Z 12008KT 27/22 A3003 RMK A01 T02710224  RH  075%=      5-min Rain = 0
KLA1 111135Z 12010KT 27/22 A3003 RMK A01 T02710224  RH  075%=      5-min Rain = 0
KLA1 111136Z 13009KT 27/22 A3003 RMK A01 T02710223  RH  075%=      5-min Rain = 0
KLA1 111137Z 12010KT 27/22 A3003 RMK A01 T02710224  RH  075%=      5-min Rain = 0
KLA1 111138Z 12011KT 27/22 A3003 RMK A01 T02710224  RH  075%=      5-min Rain = 0
KLA1 111139Z 12007KT 27/22 A3003 RMK A01 T02710224  RH  075%=      5-min Rain = 0
KLA1 111140Z 13010KT 27/22 A3003 RMK A01 T02710224  RH  075%=      5-min Rain = 0
KLA1 111141Z 13012KT 27/22 A3003 RMK A01 T02710224  RH  075%=      5-min Rain = 0
KLA1 111142Z 12009KT 27/22 A3003 RMK A01 T02700223  RH  075%=      5-min Rain = 0
KLA1 111143Z 12008KT 27/22 A3003 RMK A01 T02700223  RH  075%=      5-min Rain = 0
KLA1 111144Z 13009KT 27/22 A3003 RMK A01 T02710224  RH  076%=      5-min Rain = 0
KLA1 111145Z 12009KT 27/22 A3003 RMK A01 T02700224  RH  076%=      5-min Rain = 0
KLA1 111146Z 13011KT 27/22 A3003 RMK A01 T02700224  RH  076%=      5-min Rain = 0
KLA1 111147Z 13009KT 27/22 A3003 RMK A01 T02700224  RH  076%=      5-min Rain = 0
KLA1 111148Z 14009KT 27/22 A3003 RMK A01 T02700224  RH  076%=      5-min Rain = 0
KLA1 111149Z 13010KT 27/22 A3003 RMK A01 T02700224  RH  076%=      5-min Rain = 0
KLA1 111150Z 13009KT 27/22 A3003 RMK A01 T02700224  RH  076%=      5-min Rain = 0
KLA1 111151Z 13010KT 27/22 A3003 RMK A01 T02700224  RH  076%=      5-min Rain = 0
KLA1 111152Z 13010KT 27/22 A3004 RMK A01 T02690224  RH  076%=      5-min Rain = 0
KLA1 111153Z 13010KT 27/22 A3003 RMK A01 T02700224  RH  076%=      5-min Rain = 0
KLA1 111154Z 13010KT 27/22 A3004 RMK A01 T02700224  RH  076%=      5-min Rain = 0
KLA1 111155Z 13010KT 27/22 A3004 RMK A01 T02690224  RH  076%=      5-min Rain = 0
KLA1 111156Z 13010KT 27/22 A3004 RMK A01 T02700224  RH  076%=      5-min Rain = 0
KLA1 111157Z 13009KT 27/22 A3004 RMK A01 T02700224  RH  076%=      5-min Rain = 0
KLA1 111158Z 13009KT 27/22 A3004 RMK A01 T02690224  RH  076%=      5-min Rain = 0
KLA1 111159Z 14009KT 27/22 A3004 RMK A01 T02690224  RH  076%=      5-min Rain = 0
KLA1 111200Z 12008KT 27/22 A3004 RMK A01 T02690224  RH  076%=      5-min Rain = 0
KLA1 111201Z 13009KT 27/22 A3004 RMK A01 T02690224  RH  076%=      5-min Rain = 0
KLA1 111202Z 12008KT 27/22 A3004 RMK A01 T02690224  RH  076%=      5-min Rain = 0
KLA1 111203Z 13008G13KT 27/22 A3004 RMK A01 T02680223  RH  076%=      5-min Rain = 0
KLA1 111204Z 13011KT 27/22 A3004 RMK A01 T02680224  RH  076%=      5-min Rain = 0
KLA1 111205Z 13010KT 27/22 A3004 RMK A01 T02680224  RH  076%=      5-min Rain = 0
KLA1 111206Z 13008KT 27/22 A3004 RMK A01 T02680223  RH  076%=      5-min Rain = 0
KLA1 111207Z 12008KT 27/22 A3004 RMK A01 T02680223  RH  076%=      5-min Rain = 0
KLA1 111208Z 13009KT 27/22 A3004 RMK A01 T02680223  RH  076%=      5-min Rain = 0
KLA1 111209Z 13010KT 27/22 A3004 RMK A01 T02680223  RH  076%=      5-min Rain = 0
KLA1 111210Z 13008KT 27/22 A3004 RMK A01 T02680223  RH  076%=      5-min Rain = 0
KLA1 111211Z 12008KT 27/22 A3004 RMK A01 T02680223  RH  076%=      5-min Rain = 0
KLA1 111212Z 13008KT 27/22 A3004 RMK A01 T02680223  RH  076%=      5-min Rain = 0
KLA1 111213Z 12010KT 27/22 A3004 RMK A01 T02680223  RH  076%=      5-min Rain = 0
KLA1 111214Z 12008KT 27/22 A3004 RMK A01 T02680223  RH  076%=      5-min Rain = 0
KLA1 111215Z 12008KT 27/22 A3004 RMK A01 T02680223  RH  076%=      5-min Rain = 0
KLA1 111216Z 13006KT 27/22 A3004 RMK A01 T02680223  RH  076%=      5-min Rain = 0
KLA1 111217Z 13007KT 27/22 A3004 RMK A01 T02680223  RH  076%=      5-min Rain = 0
KLA1 111218Z 13006KT 27/22 A3004 RMK A01 T02680223  RH  076%=      5-min Rain = 0
KLA1 111219Z 13007KT 27/22 A3004 RMK A01 T02670223  RH  077%=      5-min Rain = 0
KLA1 111220Z 12005KT 27/22 A3004 RMK A01 T02670223  RH  077%=      5-min Rain = 0
KLA1 111221Z 12008KT 27/22 A3004 RMK A01 T02670223  RH  077%=      5-min Rain = 0
KLA1 111222Z 13007KT 27/22 A3004 RMK A01 T02670223  RH  077%=      5-min Rain = 0
KLA1 111223Z 13007KT 27/22 A3004 RMK A01 T02670223  RH  077%=      5-min Rain = 0
KLA1 111224Z 13006KT 27/22 A3004 RMK A01 T02670223  RH  077%=      5-min Rain = 0
KLA1 111225Z 12005KT 27/22 A3004 RMK A01 T02670223  RH  077%=      5-min Rain = 0
KLA1 111226Z 12007KT 27/22 A3005 RMK A01 T02670223  RH  077%=      5-min Rain = 0
KLA1 111227Z 13006KT 27/22 A3005 RMK A01 T02660223  RH  077%=      5-min Rain = 0
KLA1 111228Z 12006KT 27/22 A3005 RMK A01 T02660223  RH  077%=      5-min Rain = 0
KLA1 111229Z 12006KT 27/22 A3005 RMK A01 T02670223  RH  077%=      5-min Rain = 0
KLA1 111230Z 12006KT 27/22 A3005 RMK A01 T02670223  RH  077%=      5-min Rain = 0
KLA1 111231Z 13006KT 27/22 A3005 RMK A01 T02670223  RH  077%=      5-min Rain = 0
KLA1 111232Z 12007KT 27/22 A3005 RMK A01 T02680223  RH  077%=      5-min Rain = 0
KLA1 111233Z 13008KT 27/22 A3005 RMK A01 T02680223  RH  076%=      5-min Rain = 0
KLA1 111234Z 12008KT 27/22 A3005 RMK A01 T02680223  RH  076%=      5-min Rain = 0
KLA1 111235Z 12008KT 27/22 A3005 RMK A01 T02690224  RH  076%=      5-min Rain = 0
KLA1 111236Z 13007KT 27/22 A3005 RMK A01 T02690223  RH  076%=      5-min Rain = 0
KLA1 111237Z 13006KT 27/22 A3005 RMK A01 T02700223  RH  076%=      5-min Rain = 0
KLA1 111238Z 12005KT 27/22 A3005 RMK A01 T02700223  RH  076%=      5-min Rain = 0
KLA1 111239Z 12007KT 27/22 A3005 RMK A01 T02700223  RH  076%=      5-min Rain = 0
KLA1 111240Z 12008KT 27/22 A3005 RMK A01 T02710224  RH  075%=      5-min Rain = 0
KLA1 111241Z 13007KT 27/22 A3005 RMK A01 T02710224  RH  075%=      5-min Rain = 0
KLA1 111242Z 13007KT 27/22 A3006 RMK A01 T02710224  RH  075%=      5-min Rain = 0
KLA1 111243Z 13007KT 27/22 A3006 RMK A01 T02710224  RH  075%=      5-min Rain = 0
KLA1 111244Z 14009KT 27/22 A3006 RMK A01 T02710224  RH  075%=      5-min Rain = 0
KLA1 111245Z 14007KT 27/22 A3006 RMK A01 T02710224  RH  075%=      5-min Rain = 0
KLA1 111246Z 14006KT 27/22 A3006 RMK A01 T02720224  RH  075%=      5-min Rain = 0
KLA1 111247Z 13006KT 27/22 A3006 RMK A01 T02720224  RH  075%=      5-min Rain = 0
KLA1 111248Z 14007KT 27/22 A3006 RMK A01 T02720224  RH  075%=      5-min Rain = 0
KLA1 111249Z 13007KT 27/23 A3006 RMK A01 T02730225  RH  075%=      5-min Rain = 0
KLA1 111250Z 14006KT 27/23 A3006 RMK A01 T02730225  RH  075%=      5-min Rain = 0
KLA1 111251Z 13006KT 27/23 A3006 RMK A01 T02740225  RH  075%=      5-min Rain = 0
KLA1 111252Z 13009KT 27/23 A3006 RMK A01 T02740225  RH  075%=      5-min Rain = 0
KLA1 111253Z 12009KT 27/23 A3006 RMK A01 T02740225  RH  075%=      5-min Rain = 0
KLA1 111254Z 13011KT 27/23 A3006 RMK A01 T02740225  RH  075%=      5-min Rain = 0
KLA1 111255Z 13010KT 27/23 A3006 RMK A01 T02730225  RH  075%=      5-min Rain = 0
KLA1 111256Z 13011KT 27/23 A3006 RMK A01 T02730226  RH  075%=      5-min Rain = 0
KLA1 111257Z 13010KT 27/23 A3006 RMK A01 T02730226  RH  075%=      5-min Rain = 0
KLA1 111258Z 13010KT 27/23 A3006 RMK A01 T02740226  RH  075%=      5-min Rain = 0
KLA1 111259Z 13010KT 27/23 A3006 RMK A01 T02730225  RH  075%=      5-min Rain = 0
KLA1 111300Z 14011KT 27/23 A3006 RMK A01 T02730225  RH  075%=      5-min Rain = 0
KLA1 111301Z 14011KT 27/23 A3006 RMK A01 T02730225  RH  075%=      5-min Rain = 0
KLA1 111302Z 14011KT 27/23 A3006 RMK A01 T02740225  RH  075%=      5-min Rain = 0
KLA1 111303Z 14011KT 27/23 A3006 RMK A01 T02740225  RH  075%=      5-min Rain = 0
KLA1 111304Z 13009KT 27/23 A3006 RMK A01 T02740225  RH  075%=      5-min Rain = 0
KLA1 111305Z 15011KT 27/23 A3006 RMK A01 T02740225  RH  075%=      5-min Rain = 0
KLA1 111306Z 14010KT 27/23 A3006 RMK A01 T02740225  RH  075%=      5-min Rain = 0
KLA1 111307Z 14008KT 28/23 A3006 RMK A01 T02750225  RH  075%=      5-min Rain = 0
KLA1 111308Z 14010KT 28/23 A3006 RMK A01 T02750226  RH  074%=      5-min Rain = 0
KLA1 111309Z 14008KT 28/23 A3006 RMK A01 T02750226  RH  074%=      5-min Rain = 0
KLA1 111310Z 13007KT 28/23 A3007 RMK A01 T02760226  RH  074%=      5-min Rain = 0
KLA1 111311Z 14005KT 28/23 A3007 RMK A01 T02760226  RH  074%=      5-min Rain = 0
KLA1 111312Z 14009G15KT 28/23 A3007 RMK A01 T02780226  RH  073%=      5-min Rain = 0
KLA1 111313Z 14013KT 28/22 A3007 RMK A01 T02780224  RH  073%=      5-min Rain = 0
KLA1 111314Z 15011KT 28/23 A3007 RMK A01 T02770225  RH  073%=      5-min Rain = 0
KLA1 111315Z 14008KT 28/23 A3007 RMK A01 T02770225  RH  073%=      5-min Rain = 0
KLA1 111316Z 14010KT 28/23 A3007 RMK A01 T02770225  RH  073%=      5-min Rain = 0
KLA1 111317Z 13008KT 28/23 A3007 RMK A01 T02760225  RH  073%=      5-min Rain = 0
KLA1 111318Z 13009KT 28/23 A3007 RMK A01 T02770225  RH  073%=      5-min Rain = 0
KLA1 111319Z 14010KT 28/23 A3007 RMK A01 T02770225  RH  073%=      5-min Rain = 0
KLA1 111320Z 14009KT 28/23 A3007 RMK A01 T02780225  RH  073%=      5-min Rain = 0
KLA1 111321Z 15008KT 28/23 A3007 RMK A01 T02780225  RH  073%=      5-min Rain = 0
KLA1 111322Z 15009KT 28/23 A3007 RMK A01 T02780225  RH  073%=      5-min Rain = 0
KLA1 111323Z 15008KT 28/23 A3007 RMK A01 T02780225  RH  073%=      5-min Rain = 0
KLA1 111324Z 15007KT 28/23 A3007 RMK A01 T02790225  RH  073%=      5-min Rain = 0
KLA1 111325Z 15008KT 28/23 A3007 RMK A01 T02810225  RH  072%=      5-min Rain = 0
KLA1 111326Z 15008KT 28/23 A3007 RMK A01 T02810225  RH  072%=      5-min Rain = 0
KLA1 111327Z 15007KT 28/23 A3007 RMK A01 T02820226  RH  072%=      5-min Rain = 0
KLA1 111328Z 15008KT 28/23 A3007 RMK A01 T02820225  RH  071%=      5-min Rain = 0
KLA1 111329Z 14009KT 28/23 A3007 RMK A01 T02820225  RH  071%=      5-min Rain = 0
KLA1 111330Z 14008KT 28/23 A3007 RMK A01 T02820225  RH  071%=      5-min Rain = 0
KLA1 111331Z 12005KT 28/23 A3007 RMK A01 T02820226  RH  072%=      5-min Rain = 0
KLA1 111332Z 12010KT 28/23 A3007 RMK A01 T02830225  RH  071%=      5-min Rain = 0
KLA1 111333Z 13008KT 28/23 A3007 RMK A01 T02830225  RH  071%=      5-min Rain = 0
KLA1 111334Z 14010KT 28/23 A3007 RMK A01 T02830226  RH  071%=      5-min Rain = 0
KLA1 111335Z 15009KT 28/23 A3007 RMK A01 T02820225  RH  071%=      5-min Rain = 0
KLA1 111336Z 15010KT 28/23 A3007 RMK A01 T02820225  RH  071%=      5-min Rain = 0
KLA1 111337Z 14009KT 28/23 A3007 RMK A01 T02820225  RH  071%=      5-min Rain = 0
KLA1 111338Z 15009KT 28/23 A3007 RMK A01 T02820225  RH  071%=      5-min Rain = 0
KLA1 111339Z 15008KT 28/23 A3007 RMK A01 T02820225  RH  071%=      5-min Rain = 0
KLA1 111340Z 13006KT 28/23 A3008 RMK A01 T02820225  RH  071%=      5-min Rain = 0
KLA1 111341Z 12007KT 28/23 A3008 RMK A01 T02830225  RH  071%=      5-min Rain = 0
KLA1 111342Z 12009KT 28/23 A3008 RMK A01 T02840225  RH  070%=      5-min Rain = 0
KLA1 111343Z 13008KT 28/23 A3008 RMK A01 T02840225  RH  071%=      5-min Rain = 0
KLA1 111344Z 12011KT 28/23 A3008 RMK A01 T02840225  RH  070%=      5-min Rain = 0
KLA1 111345Z 12009KT 28/23 A3008 RMK A01 T02840225  RH  070%=      5-min Rain = 0
KLA1 111346Z 12009KT 28/23 A3008 RMK A01 T02840225  RH  071%=      5-min Rain = 0
KLA1 111347Z 13009KT 28/23 A3008 RMK A01 T02830225  RH  071%=      5-min Rain = 0
KLA1 111348Z 14008KT 28/23 A3008 RMK A01 T02820225  RH  071%=      5-min Rain = 0
KLA1 111349Z 13005KT 28/23 A3008 RMK A01 T02820225  RH  071%=      5-min Rain = 0
KLA1 111350Z 14007KT 28/23 A3008 RMK A01 T02840226  RH  071%=      5-min Rain = 0
KLA1 111351Z 13008KT 29/23 A3008 RMK A01 T02850225  RH  070%=      5-min Rain = 0
KLA1 111352Z 12009KT 29/23 A3008 RMK A01 T02860225  RH  070%=      5-min Rain = 0
KLA1 111353Z 13009KT 29/22 A3008 RMK A01 T02850224  RH  070%=      5-min Rain = 0
KLA1 111354Z 14008KT 28/22 A3008 RMK A01 T02840224  RH  070%=      5-min Rain = 0
KLA1 111355Z 14008KT 28/22 A3008 RMK A01 T02840224  RH  070%=      5-min Rain = 0
KLA1 111356Z 12009KT 29/23 A3008 RMK A01 T02860225  RH  070%=      5-min Rain = 0
KLA1 111357Z 12009KT 29/23 A3008 RMK A01 T02860225  RH  069%=      5-min Rain = 0
KLA1 111358Z 11008KT 29/22 A3008 RMK A01 T02860224  RH  069%=      5-min Rain = 0
KLA1 111359Z 12007KT 29/23 A3008 RMK A01 T02860225  RH  069%=      5-min Rain = 0
KLA1 111400Z 12009KT 29/22 A3008 RMK A01 T02860224  RH  069%=      5-min Rain = 0
KLA1 111401Z 13009KT 29/22 A3008 RMK A01 T02860224  RH  069%=      5-min Rain = 0
KLA1 111402Z 12009KT 29/22 A3008 RMK A01 T02860224  RH  069%=      5-min Rain = 0
KLA1 111403Z 13009KT 29/22 A3008 RMK A01 T02860224  RH  069%=      5-min Rain = 0
KLA1 111404Z 13008KT 29/22 A3008 RMK A01 T02850224  RH  070%=      5-min Rain = 0
KLA1 111405Z 12008KT 29/22 A3008 RMK A01 T02860224  RH  069%=      5-min Rain = 0
KLA1 111406Z 13009KT 29/22 A3008 RMK A01 T02860224  RH  069%=      5-min Rain = 0
KLA1 111407Z 12007KT 29/22 A3008 RMK A01 T02870224  RH  069%=      5-min Rain = 0
KLA1 111408Z 13009KT 29/23 A3008 RMK A01 T02880225  RH  069%=      5-min Rain = 0
KLA1 111409Z 13007KT 29/22 A3008 RMK A01 T02880224  RH  068%=      5-min Rain = 0
KLA1 111410Z 14008G14KT 29/23 A3008 RMK A01 T02880225  RH  069%=      5-min Rain = 0
KLA1 111411Z 14008KT 29/23 A3008 RMK A01 T02900225  RH  068%=      5-min Rain = 0
KLA1 111412Z 14009KT 29/23 A3008 RMK A01 T02910225  RH  067%=      5-min Rain = 0
KLA1 111413Z 12007KT 29/23 A3008 RMK A01 T02900225  RH  068%=      5-min Rain = 0
KLA1 111414Z 12009KT 29/23 A3008 RMK A01 T02900225  RH  068%=      5-min Rain = 0
KLA1 111415Z 12010KT 29/23 A3008 RMK A01 T02910225  RH  068%=      5-min Rain = 0
KLA1 111416Z 13007KT 29/22 A3008 RMK A01 T02900224  RH  068%=      5-min Rain = 0
KLA1 111417Z 13009KT 29/22 A3008 RMK A01 T02900224  RH  068%=      5-min Rain = 0
KLA1 111418Z 13010KT 29/22 A3008 RMK A01 T02900224  RH  067%=      5-min Rain = 0
KLA1 111419Z 13008KT 29/22 A3008 RMK A01 T02900224  RH  068%=      5-min Rain = 0
KLA1 111420Z 13008KT 29/22 A3008 RMK A01 T02910224  RH  067%=      5-min Rain = 0
KLA1 111421Z 14010KT 29/22 A3008 RMK A01 T02920224  RH  067%=      5-min Rain = 0
KLA1 111422Z 14010KT 29/22 A3008 RMK A01 T02930224  RH  067%=      5-min Rain = 0
KLA1 111423Z 15010KT 29/22 A3008 RMK A01 T02930224  RH  066%=      5-min Rain = 0
KLA1 111424Z 16010KT 29/22 A3009 RMK A01 T02940223  RH  065%=      5-min Rain = 0
KLA1 111425Z 17009KT 30/22 A3008 RMK A01 T02950222  RH  065%=      5-min Rain = 0
KLA1 111426Z 16011KT 30/22 A3008 RMK A01 T02950223  RH  065%=      5-min Rain = 0
KLA1 111427Z 15012KT 30/22 A3008 RMK A01 T02950223  RH  065%=      5-min Rain = 0
KLA1 111428Z 14009KT 30/22 A3009 RMK A01 T02950223  RH  065%=      5-min Rain = 0
KLA1 111429Z 15008KT 30/22 A3009 RMK A01 T02950223  RH  065%=      5-min Rain = 0
KLA1 111430Z 15007KT 30/22 A3009 RMK A01 T02950223  RH  065%=      5-min Rain = 0
KLA1 111431Z 13008KT 30/22 A3009 RMK A01 T02950223  RH  065%=      5-min Rain = 0
KLA1 111432Z 13010KT 30/22 A3009 RMK A01 T02950223  RH  065%=      5-min Rain = 0
KLA1 111433Z 13008KT 30/22 A3009 RMK A01 T02950223  RH  065%=      5-min Rain = 0
KLA1 111434Z 14007KT 30/22 A3009 RMK A01 T02960223  RH  065%=      5-min Rain = 0
KLA1 111435Z 15007KT 30/22 A3009 RMK A01 T02970223  RH  064%=      5-min Rain = 0
KLA1 111436Z 15006KT 30/22 A3009 RMK A01 T02990223  RH  064%=      5-min Rain = 0
KLA1 111437Z 15006KT 30/22 A3009 RMK A01 T03000224  RH  063%=      5-min Rain = 0
KLA1 111438Z 13004KT 30/22 A3009 RMK A01 T03000224  RH  064%=      5-min Rain = 0
KLA1 111439Z 13010KT 30/22 A3009 RMK A01 T03010223  RH  063%=      5-min Rain = 0
KLA1 111440Z 13009KT 30/22 A3009 RMK A01 T03010222  RH  063%=      5-min Rain = 0
KLA1 111441Z 15005KT 30/22 A3009 RMK A01 T03000223  RH  063%=      5-min Rain = 0
KLA1 111442Z 17005KT 30/22 A3009 RMK A01 T03000223  RH  063%=      5-min Rain = 0
KLA1 111443Z 15007KT 30/22 A3009 RMK A01 T03000223  RH  063%=      5-min Rain = 0
KLA1 111444Z 13009KT 30/22 A3009 RMK A01 T02980222  RH  064%=      5-min Rain = 0
KLA1 111445Z 14007KT 30/22 A3009 RMK A01 T02980222  RH  063%=      5-min Rain = 0
KLA1 111446Z 15009KT 30/22 A3009 RMK A01 T03000222  RH  063%=      5-min Rain = 0
KLA1 111447Z 15010KT 30/22 A3009 RMK A01 T03000222  RH  063%=      5-min Rain = 0
KLA1 111448Z 15007KT 30/22 A3009 RMK A01 T03000222  RH  063%=      5-min Rain = 0
KLA1 111449Z 16009KT 30/22 A3008 RMK A01 T03000222  RH  063%=      5-min Rain = 0
KLA1 111450Z 15010KT 30/22 A3008 RMK A01 T03010222  RH  063%=      5-min Rain = 0
KLA1 111451Z 15010KT 30/22 A3008 RMK A01 T03020222  RH  062%=      5-min Rain = 0
KLA1 111452Z 13009KT 30/22 A3008 RMK A01 T03010222  RH  062%=      5-min Rain = 0
KLA1 111453Z 15009KT 30/22 A3008 RMK A01 T03020222  RH  062%=      5-min Rain = 0
KLA1 111454Z 14007KT 30/22 A3008 RMK A01 T03020221  RH  062%=      5-min Rain = 0
KLA1 111455Z 14007KT 30/22 A3008 RMK A01 T03020222  RH  062%=      5-min Rain = 0
KLA1 111456Z 15010KT 30/22 A3008 RMK A01 T03040222  RH  062%=      5-min Rain = 0
KLA1 111457Z 14008KT 31/22 A3008 RMK A01 T03060221  RH  061%=      5-min Rain = 0
KLA1 111458Z 15009KT 31/22 A3008 RMK A01 T03070221  RH  060%=      5-min Rain = 0
KLA1 111459Z 14009KT 31/22 A3008 RMK A01 T03080222  RH  060%=      5-min Rain = 0
KLA1 111500Z 16008KT 31/22 A3008 RMK A01 T03090221  RH  059%=      5-min Rain = 0
KLA1 111501Z 16009G14KT 31/22 A3008 RMK A01 T03100220  RH  059%=      5-min Rain = 0
KLA1 111502Z 18009KT 31/22 A3008 RMK A01 T03110220  RH  059%=      5-min Rain = 0
KLA1 111503Z 17007KT 31/22 A3008 RMK A01 T03090221  RH  059%=      5-min Rain = 0
KLA1 111504Z 16007KT 31/22 A3008 RMK A01 T03080221  RH  060%=      5-min Rain = 0
KLA1 111505Z 14006KT 31/22 A3008 RMK A01 T03080221  RH  060%=      5-min Rain = 0
KLA1 111506Z 16008KT 31/22 A3008 RMK A01 T03090221  RH  059%=      5-min Rain = 0
KLA1 111507Z 15010KT 31/22 A3007 RMK A01 T03090222  RH  060%=      5-min Rain = 0
KLA1 111508Z 15009KT 31/22 A3007 RMK A01 T03090221  RH  060%=      5-min Rain = 0
KLA1 111509Z 13007KT 31/22 A3007 RMK A01 T03060222  RH  061%=      5-min Rain = 0
KLA1 111510Z 14006KT 31/22 A3007 RMK A01 T03070221  RH  060%=      5-min Rain = 0
KLA1 111511Z 15007KT 31/22 A3007 RMK A01 T03090222  RH  060%=      5-min Rain = 0
KLA1 111512Z 14010KT 31/22 A3007 RMK A01 T03110221  RH  059%=      5-min Rain = 0
KLA1 111513Z 13011KT 31/22 A3007 RMK A01 T03120221  RH  058%=      5-min Rain = 0
KLA1 111514Z 14008KT 31/22 A3007 RMK A01 T03110221  RH  059%=      5-min Rain = 0
KLA1 111515Z 14007KT 31/22 A3007 RMK A01 T03100220  RH  059%=      5-min Rain = 0
KLA1 111516Z 12010KT 31/22 A3007 RMK A01 T03080221  RH  060%=      5-min Rain = 0
KLA1 111517Z 13009KT 31/22 A3007 RMK A01 T03080220  RH  059%=      5-min Rain = 0
KLA1 111518Z 16006KT 31/22 A3007 RMK A01 T03090220  RH  059%=      5-min Rain = 0
KLA1 111519Z 17008KT 31/22 A3007 RMK A01 T03100221  RH  059%=      5-min Rain = 0
KLA1 111520Z 16010KT 31/22 A3007 RMK A01 T03120220  RH  058%=      5-min Rain = 0
KLA1 111521Z 15009KT 31/22 A3007 RMK A01 T03120220  RH  058%=      5-min Rain = 0
KLA1 111522Z 14009KT 31/22 A3007 RMK A01 T03120220  RH  058%=      5-min Rain = 0
KLA1 111523Z 16007KT 31/22 A3007 RMK A01 T03130219  RH  057%=      5-min Rain = 0
KLA1 111524Z 15008KT 31/22 A3007 RMK A01 T03130219  RH  058%=      5-min Rain = 0
KLA1 111525Z 14010KT 31/22 A3007 RMK A01 T03130220  RH  058%=      5-min Rain = 0
KLA1 111526Z 15007KT 32/22 A3007 RMK A01 T03150220  RH  057%=      5-min Rain = 0
KLA1 111527Z 14006KT 32/22 A3007 RMK A01 T03160221  RH  057%=      5-min Rain = 0
KLA1 111528Z 15008KT 32/22 A3007 RMK A01 T03180220  RH  056%=      5-min Rain = 0
KLA1 111529Z 17010KT 32/22 A3007 RMK A01 T03170220  RH  056%=      5-min Rain = 0
KLA1 111530Z 18011KT 32/22 A3007 RMK A01 T03170218  RH  056%=      5-min Rain = 0
KLA1 111531Z 19010KT 32/22 A3007 RMK A01 T03170217  RH  056%=      5-min Rain = 0
KLA1 111532Z 17010KT 32/22 A3007 RMK A01 T03160217  RH  056%=      5-min Rain = 0
KLA1 111533Z 18009KT 32/22 A3007 RMK A01 T03160217  RH  056%=      5-min Rain = 0
KLA1 111534Z 18009KT 32/22 A3007 RMK A01 T03180217  RH  055%=      5-min Rain = 0
KLA1 111535Z 17009KT 32/22 A3007 RMK A01 T03180217  RH  055%=      5-min Rain = 0
KLA1 111536Z 17010KT 32/22 A3007 RMK A01 T03210216  RH  054%=      5-min Rain = 0
KLA1 111537Z 17010KT 32/22 A3007 RMK A01 T03210216  RH  054%=      5-min Rain = 0
KLA1 111538Z 17009KT 32/22 A3007 RMK A01 T03190216  RH  054%=      5-min Rain = 0
KLA1 111539Z 15011KT 32/22 A3007 RMK A01 T03180217  RH  055%=      5-min Rain = 0
KLA1 111540Z 16008KT 32/22 A3007 RMK A01 T03190216  RH  054%=      5-min Rain = 0
KLA1 111541Z 17010KT 32/22 A3007 RMK A01 T03190216  RH  054%=      5-min Rain = 0
KLA1 111542Z 18010KT 32/22 A3007 RMK A01 T03190217  RH  055%=      5-min Rain = 0
KLA1 111543Z 18008KT 32/22 A3007 RMK A01 T03190216  RH  054%=      5-min Rain = 0
KLA1 111544Z 17009KT 32/22 A3007 RMK A01 T03210217  RH  054%=      5-min Rain = 0
KLA1 111545Z 20008KT 32/22 A3007 RMK A01 T03220217  RH  054%=      5-min Rain = 0
KLA1 111546Z 20006KT 32/22 A3007 RMK A01 T03220217  RH  054%=      5-min Rain = 0
KLA1 111547Z 20007KT 32/22 A3007 RMK A01 T03230218  RH  054%=      5-min Rain = 0
KLA1 111548Z 20008KT 32/22 A3007 RMK A01 T03240218  RH  054%=      5-min Rain = 0
KLA1 111549Z 16005KT 32/22 A3007 RMK A01 T03240218  RH  054%=      5-min Rain = 0
KLA1 111550Z 18005KT 33/22 A3007 RMK A01 T03250217  RH  053%=      5-min Rain = 0
KLA1 111551Z 20006KT 32/22 A3007 RMK A01 T03240217  RH  053%=      5-min Rain = 0
KLA1 111552Z 20007KT 32/22 A3007 RMK A01 T03230217  RH  053%=      5-min Rain = 0
KLA1 111553Z 19009KT 32/22 A3007 RMK A01 T03240217  RH  053%=      5-min Rain = 0
KLA1 111554Z 19007KT 32/22 A3007 RMK A01 T03240218  RH  054%=      5-min Rain = 0
KLA1 111555Z 19005KT 32/22 A3007 RMK A01 T03220218  RH  054%=      5-min Rain = 0
KLA1 111556Z 19004KT 32/22 A3007 RMK A01 T03220218  RH  054%=      5-min Rain = 0
KLA1 111557Z 18004KT 32/22 A3007 RMK A01 T03240218  RH  053%=      5-min Rain = 0
KLA1 111558Z 19004KT 33/22 A3007 RMK A01 T03250218  RH  053%=      5-min Rain = 0
KLA1 111559Z 19004KT 33/22 A3007 RMK A01 T03250218  RH  053%=      5-min Rain = 0
KLA1 111600Z 19006KT 33/22 A3007 RMK A01 T03260217  RH  053%=      5-min Rain = 0
KLA1 111601Z 17007KT 32/22 A3007 RMK A01 T03240216  RH  053%=      5-min Rain = 0
KLA1 111602Z 15007KT 32/22 A3007 RMK A01 T03230218  RH  054%=      5-min Rain = 0
KLA1 111603Z 15008KT 33/22 A3007 RMK A01 T03260218  RH  053%=      5-min Rain = 0
KLA1 111604Z 16008KT 33/22 A3007 RMK A01 T03300218  RH  052%=      5-min Rain = 0
KLA1 111605Z 14005KT 33/21 A3008 RMK A01 T03320214  RH  050%=      5-min Rain = 0
KLA1 111606Z 19004KT 33/22 A3008 RMK A01 T03310216  RH  051%=      5-min Rain = 0
KLA1 111607Z 19007KT 33/22 A3008 RMK A01 T03310215  RH  050%=      5-min Rain = 0
KLA1 111608Z 19009KT 33/22 A3008 RMK A01 T03320215  RH  050%=      5-min Rain = 0
KLA1 111609Z 19007KT 34/22 A3008 RMK A01 T03350216  RH  050%=      5-min Rain = 0
KLA1 111610Z 20008KT 34/22 A3008 RMK A01 T03350216  RH  050%=      5-min Rain = 0
KLA1 111611Z 20004KT 33/22 A3008 RMK A01 T03330215  RH  050%=      5-min Rain = 0
KLA1 111612Z 20004KT 33/22 A3008 RMK A01 T03310215  RH  050%=      5-min Rain = 0
KLA1 111613Z 19008KT 33/21 A3008 RMK A01 T03300214  RH  050%=      5-min Rain = 0
KLA1 111614Z 18008KT 33/21 A3008 RMK A01 T03320212  RH  050%=      5-min Rain = 0
KLA1 111615Z 14007KT 33/21 A3008 RMK A01 T03330213  RH  049%=      5-min Rain = 0
KLA1 111616Z 15008KT 33/21 A3008 RMK A01 T03340211  RH  048%=      5-min Rain = 0
KLA1 111617Z 15009KT 33/21 A3008 RMK A01 T03340211  RH  049%=      5-min Rain = 0
KLA1 111618Z 17007KT 34/21 A3008 RMK A01 T03360210  RH  048%=      5-min Rain = 0
KLA1 111619Z 18007KT 34/21 A3008 RMK A01 T03380210  RH  047%=      5-min Rain = 0
KLA1 111620Z 18006KT 34/21 A3008 RMK A01 T03350211  RH  048%=      5-min Rain = 0
KLA1 111621Z 20007KT 33/21 A3008 RMK A01 T03330212  RH  049%=      5-min Rain = 0
KLA1 111622Z 19005KT 33/21 A3008 RMK A01 T03330212  RH  049%=      5-min Rain = 0
KLA1 111623Z 17010KT 33/21 A3008 RMK A01 T03330211  RH  049%=      5-min Rain = 0
KLA1 111624Z 17009KT 33/21 A3008 RMK A01 T03340212  RH  049%=      5-min Rain = 0
KLA1 111625Z 18009KT 33/21 A3008 RMK A01 T03340212  RH  049%=      5-min Rain = 0
KLA1 111626Z 17008KT 34/21 A3008 RMK A01 T03350211  RH  048%=      5-min Rain = 0
KLA1 111627Z 18007KT 34/21 A3008 RMK A01 T03350211  RH  048%=      5-min Rain = 0
KLA1 111628Z 19007KT 34/21 A3008 RMK A01 T03360209  RH  048%=      5-min Rain = 0
KLA1 111629Z 18009KT 34/21 A3008 RMK A01 T03360207  RH  047%=      5-min Rain = 0
KLA1 111630Z 19006KT 34/21 A3008 RMK A01 T03390205  RH  046%=      5-min Rain = 0
KLA1 111631Z 16005KT 34/21 A3008 RMK A01 T03410206  RH  045%=      5-min Rain = 0
KLA1 111632Z 16007G12KT 34/21 A3008 RMK A01 T03410208  RH  046%=      5-min Rain = 0
KLA1 111633Z 17009KT 34/21 A3008 RMK A01 T03430207  RH  045%=      5-min Rain = 0
KLA1 111634Z 19005KT 34/21 A3008 RMK A01 T03410207  RH  045%=      5-min Rain = 0
KLA1 111635Z 18006KT 34/21 A3008 RMK A01 T03400207  RH  046%=      5-min Rain = 0
KLA1 111636Z 15009KT 34/21 A3008 RMK A01 T03400208  RH  046%=      5-min Rain = 0
KLA1 111637Z 17007KT 34/21 A3008 RMK A01 T03430209  RH  046%=      5-min Rain = 0
KLA1 111638Z 16005KT 34/21 A3008 RMK A01 T03410210  RH  046%=      5-min Rain = 0
KLA1 111639Z 16006KT 34/21 A3008 RMK A01 T03400208  RH  046%=      5-min Rain = 0
KLA1 111640Z 16005KT 34/21 A3008 RMK A01 T03400206  RH  045%=      5-min Rain = 0
KLA1 111641Z 13003KT 34/21 A3008 RMK A01 T03410208  RH  046%=      5-min Rain = 0
KLA1 111642Z 17005KT 34/21 A3008 RMK A01 T03430210  RH  046%=      5-min Rain = 0
KLA1 111643Z 18008KT 34/21 A3008 RMK A01 T03430207  RH  045%=      5-min Rain = 0
KLA1 111644Z 18007KT 34/21 A3008 RMK A01 T03430206  RH  045%=      5-min Rain = 0
KLA1 111645Z 18004KT 34/21 A3008 RMK A01 T03430206  RH  045%=      5-min Rain = 0
KLA1 111646Z 13003KT 34/21 A3008 RMK A01 T03430207  RH  045%=      5-min Rain = 0
KLA1 111647Z 16008KT 35/21 A3007 RMK A01 T03450207  RH  045%=      5-min Rain = 0
KLA1 111648Z 16005KT 35/21 A3007 RMK A01 T03470206  RH  044%=      5-min Rain = 0
KLA1 111649Z 17005KT 35/21 A3007 RMK A01 T03460206  RH  044%=      5-min Rain = 0
KLA1 111650Z 14007KT 34/21 A3007 RMK A01 T03440209  RH  045%=      5-min Rain = 0
KLA1 111651Z 12008KT 35/21 A3008 RMK A01 T03460211  RH  045%=      5-min Rain = 0
KLA1 111652Z 14006KT 35/21 A3008 RMK A01 T03460210  RH  045%=      5-min Rain = 0
KLA1 111653Z 16004KT 35/21 A3008 RMK A01 T03460210  RH  045%=      5-min Rain = 0
KLA1 111654Z 17004KT 35/21 A3008 RMK A01 T03470210  RH  045%=      5-min Rain = 0
KLA1 111655Z 17006KT 35/21 A3007 RMK A01 T03480208  RH  044%=      5-min Rain = 0
KLA1 111656Z 16010KT 35/21 A3007 RMK A01 T03490205  RH  043%=      5-min Rain = 0
KLA1 111657Z 15010KT 35/20 A3007 RMK A01 T03500204  RH  043%=      5-min Rain = 0
KLA1 111658Z 14007KT 35/21 A3007 RMK A01 T03510205  RH  043%=      5-min Rain = 0
KLA1 111659Z 14010KT 35/21 A3007 RMK A01 T03530206  RH  042%=      5-min Rain = 0
KLA1 111700Z 13008KT 35/21 A3008 RMK A01 T03530205  RH  042%=      5-min Rain = 0
KLA1 111701Z 14007KT 35/21 A3007 RMK A01 T03510208  RH  043%=      5-min Rain = 0
KLA1 111702Z 16007KT 35/21 A3008 RMK A01 T03490205  RH  043%=      5-min Rain = 0
KLA1 111703Z 16006KT 35/20 A3007 RMK A01 T03480204  RH  043%=      5-min Rain = 0
KLA1 111704Z 19003KT 35/21 A3007 RMK A01 T03470206  RH  044%=      5-min Rain = 0
KLA1 111705Z 18005KT 35/21 A3007 RMK A01 T03480208  RH  044%=      5-min Rain = 0
KLA1 111706Z 18006KT 35/21 A3007 RMK A01 T03470206  RH  044%=      5-min Rain = 0
KLA1 111707Z 19006KT 35/21 A3007 RMK A01 T03490205  RH  043%=      5-min Rain = 0
KLA1 111708Z 19005KT 35/21 A3007 RMK A01 T03500206  RH  043%=      5-min Rain = 0
KLA1 111709Z 17006G11KT 35/21 A3007 RMK A01 T03510206  RH  043%=      5-min Rain = 0
KLA1 111710Z 14009KT 35/21 A3007 RMK A01 T03510206  RH  043%=      5-min Rain = 0
KLA1 111711Z 13007KT 35/21 A3007 RMK A01 T03520205  RH  042%=      5-min Rain = 0
KLA1 111712Z 11004KT 35/20 A3007 RMK A01 T03510202  RH  042%=      5-min Rain = 0
KLA1 111713Z 11005G10KT 35/20 A3007 RMK A01 T03480202  RH  042%=      5-min Rain = 0
KLA1 111714Z 11006KT 35/21 A3007 RMK A01 T03530207  RH  043%=      5-min Rain = 0
KLA1 111715Z 11004KT 36/21 A3007 RMK A01 T03580207  RH  041%=      5-min Rain = 0
KLA1 111716Z 12002KT 36/21 A3007 RMK A01 T03570207  RH  042%=      5-min Rain = 0
KLA1 111717Z 12003KT 35/21 A3007 RMK A01 T03530205  RH  042%=      5-min Rain = 0
KLA1 111718Z 10005KT 35/20 A3007 RMK A01 T03520200  RH  041%=      5-min Rain = 0
KLA1 111719Z 14009KT 36/20 A3007 RMK A01 T03550200  RH  040%=      5-min Rain = 0
KLA1 111720Z 17006KT 36/20 A3007 RMK A01 T03590203  RH  040%=      5-min Rain = 0
KLA1 111721Z 15009KT 36/20 A3007 RMK A01 T03610204  RH  040%=      5-min Rain = 0
KLA1 111722Z 15006KT 36/20 A3007 RMK A01 T03600204  RH  040%=      5-min Rain = 0
KLA1 111723Z 14005KT 36/21 A3007 RMK A01 T03590205  RH  041%=      5-min Rain = 0
KLA1 111724Z 18005KT 36/21 A3007 RMK A01 T03580206  RH  041%=      5-min Rain = 0
KLA1 111725Z 18005KT 36/21 A3007 RMK A01 T03570206  RH  041%=      5-min Rain = 0
KLA1 111726Z 14009G14KT 36/21 A3007 RMK A01 T03600205  RH  041%=      5-min Rain = 0
KLA1 111727Z 14012KT 36/20 A3007 RMK A01 T03640199  RH  038%=      5-min Rain = 0
KLA1 111728Z 14011KT 36/20 A3007 RMK A01 T03640201  RH  039%=      5-min Rain = 0
KLA1 111729Z 14008KT 36/20 A3007 RMK A01 T03630201  RH  039%=      5-min Rain = 0
KLA1 111730Z 12005KT 36/20 A3007 RMK A01 T03590200  RH  039%=      5-min Rain = 0
KLA1 111731Z 14007KT 36/20 A3007 RMK A01 T03570198  RH  039%=      5-min Rain = 0
KLA1 111732Z 14010G17KT 36/20 A3007 RMK A01 T03590199  RH  039%=      5-min Rain = 0
KLA1 111733Z 12009G14KT 36/20 A3007 RMK A01 T03620200  RH  039%=      5-min Rain = 0
KLA1 111734Z 12007KT 37/20 A3007 RMK A01 T03660199  RH  038%=      5-min Rain = 0
KLA1 111735Z 11009KT 37/20 A3007 RMK A01 T03680200  RH  038%=      5-min Rain = 0
KLA1 111736Z 10007KT 37/20 A3007 RMK A01 T03660200  RH  038%=      5-min Rain = 0
KLA1 111737Z 10006KT 36/20 A3007 RMK A01 T03630199  RH  038%=      5-min Rain = 0
KLA1 111738Z 12006G14KT 36/20 A3007 RMK A01 T03620198  RH  038%=      5-min Rain = 0
KLA1 111739Z 14010KT 37/20 A3007 RMK A01 T03650197  RH  038%=      5-min Rain = 0
KLA1 111740Z 13008KT 37/20 A3006 RMK A01 T03650196  RH  037%=      5-min Rain = 0
KLA1 111741Z 11007G12KT 37/19 A3006 RMK A01 T03700194  RH  036%=      5-min Rain = 0
KLA1 111742Z 12010KT 37/19 A3006 RMK A01 T03740193  RH  035%=      5-min Rain = 0
KLA1 111743Z 14007G12KT 38/20 A3006 RMK A01 T03750196  RH  035%=      5-min Rain = 0
KLA1 111744Z 14006KT 37/20 A3006 RMK A01 T03730198  RH  036%=      5-min Rain = 0
KLA1 111745Z 14010KT 37/20 A3006 RMK A01 T03730195  RH  035%=      5-min Rain = 0
KLA1 111746Z 14009KT 37/20 A3006 RMK A01 T03720196  RH  036%=      5-min Rain = 0
KLA1 111747Z 12009KT 37/20 A3006 RMK A01 T03710197  RH  036%=      5-min Rain = 0
KLA1 111748Z 11006KT 37/20 A3006 RMK A01 T03710196  RH  036%=      5-min Rain = 0
KLA1 111749Z 13010KT 37/20 A3006 RMK A01 T03680195  RH  036%=      5-min Rain = 0
KLA1 111750Z 15011KT 37/19 A3006 RMK A01 T03660192  RH  036%=      5-min Rain = 0
KLA1 111751Z 13011KT 37/19 A3006 RMK A01 T03660190  RH  036%=      5-min Rain = 0
KLA1 111752Z 11010KT 37/19 A3006 RMK A01 T03670191  RH  036%=      5-min Rain = 0
KLA1 111753Z 12009KT 37/19 A3006 RMK A01 T03680189  RH  035%=      5-min Rain = 0
KLA1 111754Z 14009KT 37/19 A3006 RMK A01 T03680190  RH  035%=      5-min Rain = 0
KLA1 111755Z 13013KT 37/19 A3006 RMK A01 T03680190  RH  035%=      5-min Rain = 0
KLA1 111756Z 13011KT 37/19 A3006 RMK A01 T03690192  RH  035%=      5-min Rain = 0
KLA1 111757Z 13006KT 37/19 A3006 RMK A01 T03700192  RH  035%=      5-min Rain = 0
KLA1 111758Z 12005KT 37/19 A3006 RMK A01 T03700191  RH  035%=      5-min Rain = 0
KLA1 111759Z 14006KT 37/19 A3006 RMK A01 T03680191  RH  035%=      5-min Rain = 0
KLA1 111800Z 12004KT 37/19 A3006 RMK A01 T03690187  RH  035%=      5-min Rain = 0
KLA1 111801Z 13008KT 37/19 A3006 RMK A01 T03680187  RH  035%=      5-min Rain = 0
KLA1 111802Z 15010G16KT 37/19 A3006 RMK A01 T03690187  RH  034%=      5-min Rain = 0
KLA1 111803Z 15014KT 37/17 A3006 RMK A01 T03730172  RH  031%=      5-min Rain = 0
KLA1 111804Z 16013KT 37/17 A3006 RMK A01 T03730172  RH  031%=      5-min Rain = 0
KLA1 111805Z 16013KT 37/18 A3006 RMK A01 T03730180  RH  032%=      5-min Rain = 0
KLA1 111806Z 15012KT 38/18 A3006 RMK A01 T03760179  RH  031%=      5-min Rain = 0
KLA1 111807Z 15011KT 38/18 A3006 RMK A01 T03770182  RH  032%=      5-min Rain = 0
KLA1 111808Z 14009KT 38/18 A3006 RMK A01 T03760180  RH  032%=      5-min Rain = 0
KLA1 111809Z 15007KT 37/18 A3006 RMK A01 T03740180  RH  032%=      5-min Rain = 0
KLA1 111810Z 17010KT 38/18 A3006 RMK A01 T03750180  RH  032%=      5-min Rain = 0
KLA1 111811Z 17009KT 38/18 A3006 RMK A01 T03750180  RH  032%=      5-min Rain = 0
KLA1 111812Z 18009KT 38/18 A3006 RMK A01 T03750180  RH  032%=      5-min Rain = 0
KLA1 111813Z 18007G13KT 38/18 A3006 RMK A01 T03780176  RH  031%=      5-min Rain = 0
KLA1 111814Z 16008G13KT 38/18 A3006 RMK A01 T03780180  RH  031%=      5-min Rain = 0
KLA1 111815Z 17010KT 38/18 A3006 RMK A01 T03780181  RH  032%=      5-min Rain = 0
KLA1 111816Z 16010KT 38/18 A3006 RMK A01 T03760182  RH  032%=      5-min Rain = 0
KLA1 111817Z 16009KT 38/18 A3006 RMK A01 T03750184  RH  033%=      5-min Rain = 0
KLA1 111818Z 15002KT 38/18 A3006 RMK A01 T03750178  RH  032%=      5-min Rain = 0
KLA1 111819Z 12001KT 38/18 A3005 RMK A01 T03750177  RH  031%=      5-min Rain = 0
KLA1 111820Z 16005G10KT 38/18 A3006 RMK A01 T03750180  RH  032%=      5-min Rain = 0
KLA1 111821Z 19011KT 38/18 A3005 RMK A01 T03790175  RH  030%=      5-min Rain = 0
KLA1 111822Z 19013KT 38/17 A3005 RMK A01 T03820168  RH  029%=      5-min Rain = 0
KLA1 111823Z 18010KT 38/17 A3006 RMK A01 T03820165  RH  028%=      5-min Rain = 0
KLA1 111824Z 17010KT 38/17 A3006 RMK A01 T03810165  RH  028%=      5-min Rain = 0
KLA1 111825Z 17007KT 38/17 A3006 RMK A01 T03790169  RH  029%=      5-min Rain = 0
KLA1 111826Z 17006KT 38/17 A3006 RMK A01 T03790170  RH  029%=      5-min Rain = 0
KLA1 111827Z 15006KT 38/17 A3006 RMK A01 T03790171  RH  030%=      5-min Rain = 0
KLA1 111828Z 15005KT 38/18 A3005 RMK A01 T03780177  RH  031%=      5-min Rain = 0
KLA1 111829Z 11006KT 38/18 A3005 RMK A01 T03780176  RH  031%=      5-min Rain = 0
KLA1 111830Z 12004KT 38/18 A3005 RMK A01 T03800177  RH  030%=      5-min Rain = 0
KLA1 111831Z 20008KT 38/18 A3005 RMK A01 T03830177  RH  030%=      5-min Rain = 0
KLA1 111832Z 18007KT 38/18 A3005 RMK A01 T03840178  RH  030%=      5-min Rain = 0
KLA1 111833Z 16007KT 38/17 A3005 RMK A01 T03830171  RH  029%=      5-min Rain = 0
KLA1 111834Z 15010KT 38/17 A3005 RMK A01 T03830170  RH  029%=      5-min Rain = 0
KLA1 111835Z 15012KT 39/17 A3005 RMK A01 T03860165  RH  027%=      5-min Rain = 0
KLA1 111836Z 13010KT 39/16 A3005 RMK A01 T03850160  RH  027%=      5-min Rain = 0
KLA1 111837Z 15009KT 38/16 A3005 RMK A01 T03840158  RH  026%=      5-min Rain = 0
KLA1 111838Z 15010KT 38/15 A3005 RMK A01 T03840154  RH  026%=      5-min Rain = 0
KLA1 111839Z 12008KT 39/16 A3005 RMK A01 T03850158  RH  026%=      5-min Rain = 0
KLA1 111840Z 13009KT 38/17 A3005 RMK A01 T03810170  RH  029%=      5-min Rain = 0
KLA1 111841Z 14012KT 38/17 A3005 RMK A01 T03790173  RH  030%=      5-min Rain = 0
KLA1 111842Z 14010KT 38/18 A3005 RMK A01 T03790175  RH  030%=      5-min Rain = 0
KLA1 111843Z 15007KT 38/18 A3005 RMK A01 T03800176  RH  030%=      5-min Rain = 0
KLA1 111844Z 16005KT 38/18 A3005 RMK A01 T03810175  RH  030%=      5-min Rain = 0
KLA1 111845Z 16002KT 38/17 A3005 RMK A01 T03790165  RH  028%=      5-min Rain = 0
KLA1 111846Z 14001KT 38/17 A3005 RMK A01 T03770165  RH  029%=      5-min Rain = 0
KLA1 111847Z 11004KT 38/17 A3005 RMK A01 T03760168  RH  029%=      5-min Rain = 0
KLA1 111848Z 14003KT 38/17 A3005 RMK A01 T03780172  RH  030%=      5-min Rain = 0
KLA1 111849Z 13008KT 38/17 A3005 RMK A01 T03780174  RH  030%=      5-min Rain = 0
KLA1 111850Z 14010KT 38/17 A3005 RMK A01 T03810174  RH  030%=      5-min Rain = 0
KLA1 111851Z 15011KT 38/17 A3005 RMK A01 T03840174  RH  029%=      5-min Rain = 0
KLA1 111852Z 15010KT 39/17 A3005 RMK A01 T03860172  RH  029%=      5-min Rain = 0
KLA1 111853Z 15009KT 39/17 A3005 RMK A01 T03860173  RH  029%=      5-min Rain = 0
KLA1 111854Z 14009KT 39/17 A3005 RMK A01 T03880171  RH  028%=      5-min Rain = 0
KLA1 111855Z 10006G11KT 39/17 A3005 RMK A01 T03870170  RH  028%=      5-min Rain = 0
KLA1 111856Z 09005KT 38/17 A3004 RMK A01 T03830168  RH  028%=      5-min Rain = 0
KLA1 111857Z 08004KT 38/17 A3004 RMK A01 T03810169  RH  029%=      5-min Rain = 0
KLA1 111858Z 11005KT 38/17 A3004 RMK A01 T03840171  RH  029%=      5-min Rain = 0
KLA1 111859Z 16009KT 39/17 A3004 RMK A01 T03850171  RH  029%=      5-min Rain = 0
KLA1 111900Z 15009KT 39/17 A3004 RMK A01 T03850173  RH  029%=      5-min Rain = 0
KLA1 111901Z 15008KT 39/17 A3004 RMK A01 T03870173  RH  029%=      5-min Rain = 0
KLA1 111902Z 17011KT 39/17 A3004 RMK A01 T03910170  RH  028%=      5-min Rain = 0
KLA1 111903Z 18011KT 39/17 A3004 RMK A01 T03890170  RH  028%=      5-min Rain = 0
KLA1 111904Z 18009KT 39/17 A3004 RMK A01 T03860170  RH  028%=      5-min Rain = 0
KLA1 111905Z 17005KT 39/17 A3004 RMK A01 T03850169  RH  028%=      5-min Rain = 0
KLA1 111906Z 18008KT 38/17 A3004 RMK A01 T03840169  RH  028%=      5-min Rain = 0
KLA1 111907Z 17009KT 38/17 A3004 RMK A01 T03830166  RH  028%=      5-min Rain = 0
KLA1 111908Z 16006G11KT 38/17 A3004 RMK A01 T03820166  RH  028%=      5-min Rain = 0
KLA1 111909Z 17011KT 38/17 A3004 RMK A01 T03820166  RH  028%=      5-min Rain = 0
KLA1 111910Z 16008KT 38/16 A3004 RMK A01 T03830158  RH  027%=      5-min Rain = 0
KLA1 111911Z 16009KT 39/16 A3004 RMK A01 T03870156  RH  026%=      5-min Rain = 0
KLA1 111912Z 16008KT 39/16 A3004 RMK A01 T03900158  RH  026%=      5-min Rain = 0
KLA1 111913Z 13007KT 39/16 A3004 RMK A01 T03910164  RH  026%=      5-min Rain = 0
KLA1 111914Z 09008KT 39/17 A3004 RMK A01 T03900166  RH  027%=      5-min Rain = 0
KLA1 111915Z 09005KT 39/17 A3004 RMK A01 T03890165  RH  027%=      5-min Rain = 0
KLA1 111916Z 07002KT 39/16 A3004 RMK A01 T03880164  RH  027%=      5-min Rain = 0
KLA1 111917Z 09002KT 39/17 A3004 RMK A01 T03880167  RH  028%=      5-min Rain = 0
KLA1 111918Z 11006KT 39/17 A3004 RMK A01 T03890167  RH  027%=      5-min Rain = 0
KLA1 111919Z 12008KT 39/17 A3004 RMK A01 T03880165  RH  027%=      5-min Rain = 0
KLA1 111920Z 12011G17KT 39/17 A3004 RMK A01 T03890167  RH  027%=      5-min Rain = 0
KLA1 111921Z 10008KT 39/17 A3004 RMK A01 T03880166  RH  027%=      5-min Rain = 0
KLA1 111922Z 10009KT 39/17 A3004 RMK A01 T03850165  RH  027%=      5-min Rain = 0
KLA1 111923Z 13009KT 39/17 A3004 RMK A01 T03850165  RH  028%=      5-min Rain = 0
KLA1 111924Z 10006KT 39/16 A3004 RMK A01 T03870163  RH  027%=      5-min Rain = 0
KLA1 111925Z 04004KT 39/16 A3003 RMK A01 T03850162  RH  027%=      5-min Rain = 0
KLA1 111926Z 10006KT 39/16 A3003 RMK A01 T03850163  RH  027%=      5-min Rain = 0
KLA1 111927Z 13010KT 39/16 A3003 RMK A01 T03890164  RH  027%=      5-min Rain = 0
KLA1 111928Z 10010KT 39/16 A3003 RMK A01 T03920164  RH  026%=      5-min Rain = 0
KLA1 111929Z 11009KT 40/17 A3003 RMK A01 T03950166  RH  026%=      5-min Rain = 0
KLA1 111930Z 12009G14KT 40/16 A3003 RMK A01 T03970164  RH  026%=      5-min Rain = 0
KLA1 111931Z 12012KT 40/16 A3003 RMK A01 T03950162  RH  026%=      5-min Rain = 0
KLA1 111932Z 11009G14KT 40/16 A3003 RMK A01 T03950160  RH  025%=      5-min Rain = 0
KLA1 111933Z 11007KT 39/16 A3003 RMK A01 T03930160  RH  026%=      5-min Rain = 0
KLA1 111934Z 13008KT 39/16 A3003 RMK A01 T03930160  RH  026%=      5-min Rain = 0
KLA1 111935Z 14006KT 40/16 A3003 RMK A01 T03950157  RH  025%=      5-min Rain = 0
KLA1 111936Z 14010KT 39/15 A3003 RMK A01 T03940154  RH  024%=      5-min Rain = 0
KLA1 111937Z 14006KT 39/15 A3003 RMK A01 T03940152  RH  024%=      5-min Rain = 0
KLA1 111938Z 15007KT 39/15 A3003 RMK A01 T03910152  RH  025%=      5-min Rain = 0
KLA1 111939Z 15008KT 39/15 A3003 RMK A01 T03920151  RH  024%=      5-min Rain = 0
KLA1 111940Z 15006G11KT 39/16 A3003 RMK A01 T03900155  RH  025%=      5-min Rain = 0
KLA1 111941Z 15002KT 39/16 A3003 RMK A01 T03890156  RH  025%=      5-min Rain = 0
KLA1 111942Z 15010KT 39/16 A3003 RMK A01 T03880158  RH  026%=      5-min Rain = 0
KLA1 111943Z 14012KT 39/16 A3003 RMK A01 T03920163  RH  026%=      5-min Rain = 0
KLA1 111944Z 14009KT 39/16 A3003 RMK A01 T03940163  RH  026%=      5-min Rain = 0
KLA1 111945Z 16008G14KT 39/16 A3003 RMK A01 T03930163  RH  026%=      5-min Rain = 0
KLA1 111946Z 16010KT 39/16 A3003 RMK A01 T03940162  RH  026%=      5-min Rain = 0
KLA1 111947Z 18013KT 39/16 A3003 RMK A01 T03940163  RH  026%=      5-min Rain = 0
KLA1 111948Z 15012KT 40/16 A3003 RMK A01 T03950161  RH  025%=      5-min Rain = 0
KLA1 111949Z 13010KT 40/16 A3003 RMK A01 T03970159  RH  025%=      5-min Rain = 0
KLA1 111950Z 14012G17KT 40/16 A3003 RMK A01 T03970159  RH  025%=      5-min Rain = 0
KLA1 111951Z 14012G17KT 40/16 A3003 RMK A01 T03970158  RH  025%=      5-min Rain = 0
KLA1 111952Z 15007KT 40/16 A3003 RMK A01 T03960159  RH  025%=      5-min Rain = 0
KLA1 111953Z 16011KT 40/16 A3003 RMK A01 T04000159  RH  024%=      5-min Rain = 0
KLA1 111954Z 16009KT 40/15 A3003 RMK A01 T04020154  RH  023%=      5-min Rain = 0
KLA1 111955Z 16007KT 40/15 A3003 RMK A01 T03970152  RH  024%=      5-min Rain = 0
KLA1 111956Z 17003KT 39/16 A3002 RMK A01 T03940157  RH  025%=      5-min Rain = 0
KLA1 111957Z 12002KT 39/16 A3002 RMK A01 T03910157  RH  025%=      5-min Rain = 0
KLA1 111958Z 12004KT 39/16 A3002 RMK A01 T03910158  RH  026%=      5-min Rain = 0
KLA1 111959Z 10007G12KT 39/16 A3002 RMK A01 T03930158  RH  025%=      5-min Rain = 0
KLA1 112000Z 09009KT 40/16 A3002 RMK A01 T03950157  RH  025%=      5-min Rain = 0
KLA1 112001Z 09008KT 39/16 A3002 RMK A01 T03940157  RH  025%=      5-min Rain = 0
KLA1 112002Z 11010KT 39/16 A3002 RMK A01 T03930157  RH  025%=      5-min Rain = 0
KLA1 112003Z 14010G15KT 40/16 A3002 RMK A01 T03950156  RH  025%=      5-min Rain = 0
KLA1 112004Z 17010KT 40/15 A3002 RMK A01 T03960153  RH  024%=      5-min Rain = 0
KLA1 112005Z 16006KT 39/15 A3002 RMK A01 T03940153  RH  024%=      5-min Rain = 0
KLA1 112006Z 15010KT 39/15 A3002 RMK A01 T03930152  RH  024%=      5-min Rain = 0
KLA1 112007Z 14011KT 40/15 A3002 RMK A01 T03970151  RH  024%=      5-min Rain = 0
KLA1 112008Z 17007KT 40/15 A3002 RMK A01 T03970151  RH  024%=      5-min Rain = 0
KLA1 112009Z 16010KT 40/15 A3002 RMK A01 T03980146  RH  023%=      5-min Rain = 0
KLA1 112010Z 15007KT 40/15 A3002 RMK A01 T04000148  RH  023%=      5-min Rain = 0
KLA1 112011Z 15008KT 40/15 A3002 RMK A01 T04020150  RH  023%=      5-min Rain = 0
KLA1 112012Z 16011KT 40/15 A3002 RMK A01 T04030149  RH  023%=      5-min Rain = 0
KLA1 112013Z 16006G11KT 40/15 A3002 RMK A01 T04030148  RH  022%=      5-min Rain = 0
KLA1 112014Z 20006KT 40/15 A3002 RMK A01 T04000148  RH  023%=      5-min Rain = 0
KLA1 112015Z 18006KT 40/15 A3002 RMK A01 T03950150  RH  024%=      5-min Rain = 0
KLA1 112016Z 12009KT 40/15 A3002 RMK A01 T03970153  RH  024%=      5-min Rain = 0
KLA1 112017Z 12007KT 40/16 A3002 RMK A01 T04020159  RH  024%=      5-min Rain = 0
KLA1 112018Z 11003KT 40/16 A3002 RMK A01 T04030158  RH  024%=      5-min Rain = 0
KLA1 112019Z 09005KT 40/16 A3002 RMK A01 T04000156  RH  024%=      5-min Rain = 0
KLA1 112020Z 09008KT 40/16 A3002 RMK A01 T03990155  RH  024%=      5-min Rain = 0
KLA1 112021Z 11005KT 40/15 A3002 RMK A01 T03980153  RH  024%=      5-min Rain = 0
KLA1 112022Z 11007KT 40/15 A3002 RMK A01 T03970150  RH  023%=      5-min Rain = 0
KLA1 112023Z 11012KT 40/14 A3002 RMK A01 T04000140  RH  022%=      5-min Rain = 0
KLA1 112024Z 10011KT 40/13 A3002 RMK A01 T04010133  RH  021%=      5-min Rain = 0
KLA1 112025Z 12009KT 40/14 A3002 RMK A01 T04000140  RH  022%=      5-min Rain = 0
KLA1 112026Z 11009KT 40/14 A3002 RMK A01 T04010144  RH  022%=      5-min Rain = 0
KLA1 112027Z 12009KT 40/15 A3001 RMK A01 T03990148  RH  023%=      5-min Rain = 0
KLA1 112028Z 11011KT 40/15 A3001 RMK A01 T03980149  RH  023%=      5-min Rain = 0
KLA1 112029Z 11012KT 40/15 A3001 RMK A01 T04010149  RH  023%=      5-min Rain = 0
KLA1 112030Z 10013KT 40/15 A3001 RMK A01 T04020148  RH  023%=      5-min Rain = 0
KLA1 112031Z 08012KT 40/15 A3001 RMK A01 T04000147  RH  023%=      5-min Rain = 0
KLA1 112032Z 08012KT 40/15 A3001 RMK A01 T04000148  RH  023%=      5-min Rain = 0
KLA1 112033Z 09008G13KT 40/15 A3001 RMK A01 T04000147  RH  023%=      5-min Rain = 0
KLA1 112034Z 10010KT 40/14 A3001 RMK A01 T04030144  RH  022%=      5-min Rain = 0
KLA1 112035Z 11012KT 40/14 A3001 RMK A01 T04040143  RH  022%=      5-min Rain = 0
KLA1 112036Z 10012KT 40/14 A3001 RMK A01 T04020144  RH  022%=      5-min Rain = 0
KLA1 112037Z 10006KT 40/14 A3001 RMK A01 T03980144  RH  023%=      5-min Rain = 0
KLA1 112038Z 12010KT 40/15 A3001 RMK A01 T03990149  RH  023%=      5-min Rain = 0
KLA1 112039Z 11012KT 40/15 A3001 RMK A01 T04020149  RH  023%=      5-min Rain = 0
KLA1 112040Z 09009KT 40/14 A3001 RMK A01 T04000143  RH  022%=      5-min Rain = 0
KLA1 112041Z 09007KT 40/15 A3001 RMK A01 T03980145  RH  023%=      5-min Rain = 0
KLA1 112042Z 10004KT 40/15 A3001 RMK A01 T03960150  RH  024%=      5-min Rain = 0
KLA1 112043Z 09005KT 39/15 A30 RMK A01 T03930150  RH  024%=      5-min Rain = 0
KLA1 112044Z 14009G14KT 40/15 A3001 RMK A01 T03960151  RH  024%=      5-min Rain = 0
KLA1 112045Z 13010KT 41/15 A3001 RMK A01 T04050153  RH  023%=      5-min Rain = 0
KLA1 112046Z 13011KT 41/15 A3001 RMK A01 T04070149  RH  022%=      5-min Rain = 0
KLA1 112047Z 14011KT 41/15 A3001 RMK A01 T04050148  RH  022%=      5-min Rain = 0
KLA1 112048Z 14009KT 40/15 A30 RMK A01 T04030148  RH  022%=      5-min Rain = 0
KLA1 112049Z 12008KT 40/15 A30 RMK A01 T04030148  RH  022%=      5-min Rain = 0
KLA1 112050Z 11005KT 40/15 A30 RMK A01 T04030148  RH  022%=      5-min Rain = 0
KLA1 112051Z 14011KT 41/15 A30 RMK A01 T04050149  RH  022%=      5-min Rain = 0
KLA1 112052Z 15009KT 41/15 A30 RMK A01 T04070148  RH  022%=      5-min Rain = 0
KLA1 112053Z 14007KT 41/15 A30 RMK A01 T04050149  RH  022%=      5-min Rain = 0
KLA1 112054Z 17008KT 41/15 A30 RMK A01 T04050150  RH  023%=      5-min Rain = 0
KLA1 112055Z 16010KT 41/15 A30 RMK A01 T04060147  RH  022%=      5-min Rain = 0
KLA1 112056Z 16011KT 40/15 A30 RMK A01 T04040145  RH  022%=      5-min Rain = 0
KLA1 112057Z 16008KT 40/14 A30 RMK A01 T04010144  RH  022%=      5-min Rain = 0
KLA1 112058Z 16012KT 40/14 A30 RMK A01 T04000143  RH  022%=      5-min Rain = 0
KLA1 112059Z 13011KT 40/14 A30 RMK A01 T04020139  RH  021%=      5-min Rain = 0
KLA1 112100Z 13009KT 40/14 A30 RMK A01 T04020141  RH  021%=      5-min Rain = 0
KLA1 112101Z 11011KT 40/14 A30 RMK A01 T04010144  RH  022%=      5-min Rain = 0
KLA1 112102Z 11013KT 40/15 A30 RMK A01 T04030145  RH  022%=      5-min Rain = 0
KLA1 112103Z 11011KT 40/15 A30 RMK A01 T04040146  RH  022%=      5-min Rain = 0
KLA1 112104Z 13009KT 40/14 A30 RMK A01 T04040143  RH  022%=      5-min Rain = 0
KLA1 112105Z 13011KT 41/14 A30 RMK A01 T04050143  RH  021%=      5-min Rain = 0
KLA1 112106Z 13011KT 40/14 A30 RMK A01 T04040142  RH  021%=      5-min Rain = 0
KLA1 112107Z 13008KT 40/14 A30 RMK A01 T04030138  RH  021%=      5-min Rain = 0
KLA1 112108Z 14004G9KT 40/14 A30 RMK A01 T04030136  RH  021%=      5-min Rain = 0
KLA1 112109Z 13010KT 40/14 A30 RMK A01 T04010139  RH  021%=      5-min Rain = 0
KLA1 112110Z 12013G18KT 40/14 A2999 RMK A01 T04010141  RH  022%=      5-min Rain = 0
KLA1 112111Z 11012G18KT 40/14 A30 RMK A01 T04010143  RH  022%=      5-min Rain = 0
KLA1 112112Z 11005KT 40/14 A2999 RMK A01 T04000143  RH  022%=      5-min Rain = 0
KLA1 112113Z 08007KT 40/14 A2999 RMK A01 T03970142  RH  022%=      5-min Rain = 0
KLA1 112114Z 11009KT 40/14 A2999 RMK A01 T03980139  RH  022%=      5-min Rain = 0
KLA1 112115Z 14013KT 40/14 A2999 RMK A01 T04020144  RH  022%=      5-min Rain = 0
KLA1 112116Z 13009KT 41/15 A2999 RMK A01 T04050146  RH  022%=      5-min Rain = 0
KLA1 112117Z 19009G14KT 40/15 A2999 RMK A01 T04040148  RH  022%=      5-min Rain = 0
KLA1 112118Z 20008KT 40/15 A2999 RMK A01 T04040149  RH  022%=      5-min Rain = 0
KLA1 112119Z 21008G13KT 40/15 A2999 RMK A01 T04020149  RH  023%=      5-min Rain = 0
KLA1 112120Z 20009KT 40/15 A2999 RMK A01 T04020147  RH  022%=      5-min Rain = 0
KLA1 112121Z 17005KT 40/15 A2999 RMK A01 T04020146  RH  022%=      5-min Rain = 0
KLA1 112122Z 14009KT 40/14 A2999 RMK A01 T04000144  RH  022%=      5-min Rain = 0
KLA1 112123Z 14010KT 40/14 A2999 RMK A01 T04030141  RH  021%=      5-min Rain = 0
KLA1 112124Z 13010KT 41/14 A2999 RMK A01 T04080139  RH  021%=      5-min Rain = 0
KLA1 112125Z 11010KT 41/14 A2999 RMK A01 T04100137  RH  020%=      5-min Rain = 0
KLA1 112126Z 15012KT 41/14 A2999 RMK A01 T04090137  RH  020%=      5-min Rain = 0
KLA1 112127Z 15009KT 41/14 A2999 RMK A01 T04090135  RH  020%=      5-min Rain = 0
KLA1 112128Z 14008KT 41/14 A2999 RMK A01 T04070135  RH  020%=      5-min Rain = 0
KLA1 112129Z 16006KT 40/13 A2999 RMK A01 T04040134  RH  020%=      5-min Rain = 0
KLA1 112130Z 16008KT 40/14 A2999 RMK A01 T04030135  RH  021%=      5-min Rain = 0
KLA1 112131Z 16008KT 40/13 A2999 RMK A01 T04020134  RH  021%=      5-min Rain = 0
KLA1 112132Z 17007KT 40/14 A2999 RMK A01 T04010136  RH  021%=      5-min Rain = 0
KLA1 112133Z 18004KT 40/14 A2999 RMK A01 T04010137  RH  021%=      5-min Rain = 0
KLA1 112134Z 17006KT 40/14 A2998 RMK A01 T04020140  RH  021%=      5-min Rain = 0
KLA1 112135Z 15010KT 40/14 A2998 RMK A01 T04040140  RH  021%=      5-min Rain = 0
KLA1 112136Z 16014KT 41/14 A2998 RMK A01 T04050141  RH  021%=      5-min Rain = 0
KLA1 112137Z 16014G20KT 41/14 A2999 RMK A01 T04050142  RH  021%=      5-min Rain = 0
KLA1 112138Z 14011KT 41/14 A2998 RMK A01 T04060141  RH  021%=      5-min Rain = 0
KLA1 112139Z 14016KT 41/14 A2998 RMK A01 T04060141  RH  021%=      5-min Rain = 0
KLA1 112140Z 14012KT 41/14 A2998 RMK A01 T04050142  RH  021%=      5-min Rain = 0
KLA1 112141Z 13014KT 41/14 A2998 RMK A01 T04050142  RH  021%=      5-min Rain = 0
KLA1 112142Z 13011KT 41/14 A2998 RMK A01 T04070142  RH  021%=      5-min Rain = 0
KLA1 112143Z 14009KT 41/14 A2998 RMK A01 T04080142  RH  021%=      5-min Rain = 0
KLA1 112144Z 13009KT 41/14 A2998 RMK A01 T04050142  RH  021%=      5-min Rain = 0
KLA1 112145Z 12011KT 40/14 A2998 RMK A01 T04040141  RH  021%=      5-min Rain = 0
KLA1 112146Z 11009KT 40/14 A2998 RMK A01 T04040140  RH  021%=      5-min Rain = 0
KLA1 112147Z 15008KT 40/14 A2998 RMK A01 T04000140  RH  022%=      5-min Rain = 0
KLA1 112148Z 18009KT 40/14 A2998 RMK A01 T04030143  RH  022%=      5-min Rain = 0
KLA1 112149Z 17010KT 41/14 A2998 RMK A01 T04060142  RH  021%=      5-min Rain = 0
KLA1 112150Z 14012KT 41/14 A2998 RMK A01 T04070143  RH  021%=      5-min Rain = 0
KLA1 112151Z 15015G20KT 41/14 A2998 RMK A01 T04080142  RH  021%=      5-min Rain = 0
KLA1 112152Z 15013G18KT 41/14 A2998 RMK A01 T04070141  RH  021%=      5-min Rain = 0
KLA1 112153Z 15009KT 41/14 A2998 RMK A01 T04050139  RH  021%=      5-min Rain = 0
KLA1 112154Z 14007KT 40/14 A2998 RMK A01 T04030138  RH  021%=      5-min Rain = 0
KLA1 112155Z 15007KT 40/14 A2998 RMK A01 T04030140  RH  021%=      5-min Rain = 0
KLA1 112156Z 17008KT 40/14 A2998 RMK A01 T04040139  RH  021%=      5-min Rain = 0
KLA1 112157Z 14011KT 40/14 A2998 RMK A01 T04030139  RH  021%=      5-min Rain = 0
KLA1 112158Z 14011KT 40/14 A2998 RMK A01 T04040138  RH  021%=      5-min Rain = 0
KLA1 112159Z 14010KT 41/14 A2998 RMK A01 T04060138  RH  021%=      5-min Rain = 0
KLA1 112200Z 16010KT 41/14 A2998 RMK A01 T04050140  RH  021%=      5-min Rain = 0
KLA1 112201Z 18007KT 41/14 A2998 RMK A01 T04050141  RH  021%=      5-min Rain = 0
KLA1 112202Z 16013KT 41/14 A2998 RMK A01 T04060141  RH  021%=      5-min Rain = 0
KLA1 112203Z 15010KT 41/14 A2998 RMK A01 T04080137  RH  020%=      5-min Rain = 0
KLA1 112204Z 15009KT 41/14 A2998 RMK A01 T04080138  RH  021%=      5-min Rain = 0
KLA1 112205Z 14010KT 41/14 A2998 RMK A01 T04070138  RH  021%=      5-min Rain = 0
KLA1 112206Z 15008KT 41/14 A2998 RMK A01 T04060138  RH  021%=      5-min Rain = 0
KLA1 112207Z 15009G16KT 41/14 A2998 RMK A01 T04080141  RH  021%=      5-min Rain = 0
KLA1 112208Z 14011G16KT 41/14 A2998 RMK A01 T04110139  RH  020%=      5-min Rain = 0
KLA1 112209Z 14011KT 41/14 A2998 RMK A01 T04120139  RH  020%=      5-min Rain = 0
KLA1 112210Z 15010KT 41/14 A2998 RMK A01 T04090139  RH  020%=      5-min Rain = 0
KLA1 112211Z 15013KT 41/14 A2998 RMK A01 T04070140  RH  021%=      5-min Rain = 0
KLA1 112212Z 16010KT 41/14 A2998 RMK A01 T04060140  RH  021%=      5-min Rain = 0
KLA1 112213Z 18009KT 41/14 A2998 RMK A01 T04060139  RH  021%=      5-min Rain = 0
KLA1 112214Z 18008KT 41/14 A2998 RMK A01 T04050139  RH  021%=      5-min Rain = 0
KLA1 112215Z 17010KT 41/14 A2998 RMK A01 T04050138  RH  021%=      5-min Rain = 0
KLA1 112216Z 14010KT 41/14 A2998 RMK A01 T04060138  RH  021%=      5-min Rain = 0
KLA1 112217Z 13014KT 41/14 A2998 RMK A01 T04110135  RH  020%=      5-min Rain = 0
KLA1 112218Z 13008KT 41/13 A2998 RMK A01 T04100134  RH  020%=      5-min Rain = 0
KLA1 112219Z 12007KT 41/14 A2998 RMK A01 T04110135  RH  020%=      5-min Rain = 0
KLA1 112220Z 13010KT 41/13 A2998 RMK A01 T04130134  RH  019%=      5-min Rain = 0
KLA1 112221Z 13009KT 41/13 A2998 RMK A01 T04110134  RH  020%=      5-min Rain = 0
KLA1 112222Z 14011G16KT 41/14 A2998 RMK A01 T04100139  RH  020%=      5-min Rain = 0
KLA1 112223Z 15010KT 41/14 A2998 RMK A01 T04100141  RH  021%=      5-min Rain = 0
KLA1 112224Z 15012KT 41/14 A2997 RMK A01 T04100141  RH  021%=      5-min Rain = 0
KLA1 112225Z 16012KT 41/14 A2997 RMK A01 T04110139  RH  020%=      5-min Rain = 0
KLA1 112226Z 16011KT 41/14 A2997 RMK A01 T04100138  RH  020%=      5-min Rain = 0
KLA1 112227Z 16013KT 41/14 A2997 RMK A01 T04080138  RH  020%=      5-min Rain = 0
KLA1 112228Z 16012KT 41/14 A2997 RMK A01 T04070137  RH  020%=      5-min Rain = 0
KLA1 112229Z 18009KT 41/14 A2997 RMK A01 T04060136  RH  020%=      5-min Rain = 0
KLA1 112230Z 16006KT 41/14 A2997 RMK A01 T04060137  RH  021%=      5-min Rain = 0
KLA1 112231Z 15011KT 41/14 A2997 RMK A01 T04070139  RH  021%=      5-min Rain = 0
KLA1 112232Z 17011KT 41/14 A2997 RMK A01 T04080139  RH  021%=      5-min Rain = 0
KLA1 112233Z 16011KT 41/14 A2997 RMK A01 T04080137  RH  020%=      5-min Rain = 0
KLA1 112234Z 17009KT 41/14 A2997 RMK A01 T04080138  RH  021%=      5-min Rain = 0
KLA1 112235Z 16010KT 41/14 A2997 RMK A01 T04070140  RH  021%=      5-min Rain = 0
KLA1 112236Z 15012KT 41/14 A2997 RMK A01 T04070137  RH  021%=      5-min Rain = 0
KLA1 112237Z 14010KT 41/13 A2997 RMK A01 T04070133  RH  020%=      5-min Rain = 0
KLA1 112238Z 15008KT 40/13 A2997 RMK A01 T04040133  RH  020%=      5-min Rain = 0
KLA1 112239Z 14008KT 41/14 A2997 RMK A01 T04070135  RH  020%=      5-min Rain = 0
KLA1 112240Z 17006KT 41/14 A2997 RMK A01 T04090135  RH  020%=      5-min Rain = 0
KLA1 112241Z 16010KT 41/13 A2997 RMK A01 T04080134  RH  020%=      5-min Rain = 0
KLA1 112242Z 16010KT 41/14 A2997 RMK A01 T04070135  RH  020%=      5-min Rain = 0
KLA1 112243Z 11009KT 41/14 A2997 RMK A01 T04060137  RH  020%=      5-min Rain = 0
KLA1 112244Z 12012G17KT 41/14 A2997 RMK A01 T04070136  RH  020%=      5-min Rain = 0
KLA1 112245Z 13013KT 41/14 A2997 RMK A01 T04070135  RH  020%=      5-min Rain = 0
KLA1 112246Z 14013KT 41/14 A2997 RMK A01 T04080137  RH  020%=      5-min Rain = 0
KLA1 112247Z 14011KT 41/14 A2997 RMK A01 T04090138  RH  020%=      5-min Rain = 0
KLA1 112248Z 15009KT 41/14 A2997 RMK A01 T04080139  RH  021%=      5-min Rain = 0
KLA1 112249Z 16011KT 41/14 A2997 RMK A01 T04090139  RH  021%=      5-min Rain = 0
KLA1 112250Z 14010KT 41/14 A2997 RMK A01 T04080139  RH  021%=      5-min Rain = 0
KLA1 112251Z 14013KT 41/14 A2997 RMK A01 T04060142  RH  021%=      5-min Rain = 0
KLA1 112252Z 14009KT 41/14 A2997 RMK A01 T04060143  RH  021%=      5-min Rain = 0
KLA1 112253Z 16009KT 41/14 A2996 RMK A01 T04070142  RH  021%=      5-min Rain = 0
KLA1 112254Z 14010KT 41/14 A2996 RMK A01 T04060142  RH  021%=      5-min Rain = 0
KLA1 112255Z 16011KT 41/14 A2996 RMK A01 T04060143  RH  021%=      5-min Rain = 0
KLA1 112256Z 16010KT 40/14 A2996 RMK A01 T04040144  RH  022%=      5-min Rain = 0
KLA1 112257Z 14012KT 40/14 A2996 RMK A01 T04030141  RH  021%=      5-min Rain = 0
KLA1 112258Z 14013G20KT 40/14 A2996 RMK A01 T04040138  RH  021%=      5-min Rain = 0
KLA1 112259Z 15013KT 40/14 A2996 RMK A01 T04040139  RH  021%=      5-min Rain = 0
KLA1 112300Z 16015KT 41/14 A2996 RMK A01 T04050140  RH  021%=      5-min Rain = 0
KLA1 112301Z 16014KT 40/14 A2996 RMK A01 T04030139  RH  021%=      5-min Rain = 0
KLA1 112302Z 16011KT 40/14 A2996 RMK A01 T04010138  RH  021%=      5-min Rain = 0
KLA1 112303Z 16008KT 40/14 A2996 RMK A01 T03990139  RH  022%=      5-min Rain = 0
KLA1 112304Z 16010KT 40/14 A2996 RMK A01 T04010140  RH  022%=      5-min Rain = 0
KLA1 112305Z 15011KT 41/14 A2996 RMK A01 T04050139  RH  021%=      5-min Rain = 0
KLA1 112306Z 17008KT 41/14 A2996 RMK A01 T04060141  RH  021%=      5-min Rain = 0
KLA1 112307Z 17011KT 41/14 A2996 RMK A01 T04090140  RH  021%=      5-min Rain = 0
KLA1 112308Z 17015KT 41/14 A2996 RMK A01 T04090139  RH  021%=      5-min Rain = 0
KLA1 112309Z 17014KT 41/14 A2996 RMK A01 T04060137  RH  021%=      5-min Rain = 0
KLA1 112310Z 17007KT 40/13 A2996 RMK A01 T04020134  RH  021%=      5-min Rain = 0
KLA1 112311Z 18009KT 40/14 A2996 RMK A01 T04010136  RH  021%=      5-min Rain = 0
KLA1 112312Z 17008KT 40/14 A2996 RMK A01 T04030136  RH  021%=      5-min Rain = 0
KLA1 112313Z 15007KT 41/14 A2996 RMK A01 T04060136  RH  020%=      5-min Rain = 0
KLA1 112314Z 13007G12KT 41/13 A2996 RMK A01 T04100133  RH  020%=      5-min Rain = 0
KLA1 112315Z 13009KT 41/13 A2996 RMK A01 T04110129  RH  019%=      5-min Rain = 0
KLA1 112316Z 14008KT 41/13 A2996 RMK A01 T04080129  RH  019%=      5-min Rain = 0
KLA1 112317Z 14009KT 41/13 A2996 RMK A01 T04070131  RH  020%=      5-min Rain = 0
KLA1 112318Z 12010KT 41/13 A2996 RMK A01 T04050132  RH  020%=      5-min Rain = 0
KLA1 112319Z 14012G17KT 41/13 A2995 RMK A01 T04050133  RH  020%=      5-min Rain = 0
KLA1 112320Z 15013KT 41/14 A2996 RMK A01 T04050135  RH  020%=      5-min Rain = 0
KLA1 112321Z 14012KT 41/14 A2996 RMK A01 T04050135  RH  020%=      5-min Rain = 0
KLA1 112322Z 15011KT 40/13 A2996 RMK A01 T04040134  RH  020%=      5-min Rain = 0
KLA1 112323Z 15008KT 40/13 A2996 RMK A01 T04040133  RH  020%=      5-min Rain = 0
KLA1 112324Z 15012KT 41/13 A2996 RMK A01 T04050133  RH  020%=      5-min Rain = 0
KLA1 112325Z 14010KT 40/13 A2996 RMK A01 T04040134  RH  020%=      5-min Rain = 0
KLA1 112326Z 15010KT 40/13 A2996 RMK A01 T04030134  RH  021%=      5-min Rain = 0
KLA1 112327Z 15009KT 40/13 A2996 RMK A01 T04040133  RH  020%=      5-min Rain = 0
KLA1 112328Z 15010KT 41/13 A2996 RMK A01 T04060132  RH  020%=      5-min Rain = 0
KLA1 112329Z 15009KT 41/13 A2996 RMK A01 T04060130  RH  020%=      5-min Rain = 0
KLA1 112330Z 16011KT 40/13 A2996 RMK A01 T04030132  RH  020%=      5-min Rain = 0
KLA1 112331Z 15009KT 40/13 A2996 RMK A01 T04020133  RH  020%=      5-min Rain = 0
KLA1 112332Z 17010KT 40/14 A2996 RMK A01 T04020136  RH  021%=      5-min Rain = 0
KLA1 112333Z 17010KT 40/14 A2996 RMK A01 T04020138  RH  021%=      5-min Rain = 0
KLA1 112334Z 17009KT 40/14 A2996 RMK A01 T04020140  RH  021%=      5-min Rain = 0
KLA1 112335Z 13009KT 40/14 A2996 RMK A01 T04020140  RH  021%=      5-min Rain = 0
KLA1 112336Z 13010KT 40/14 A2996 RMK A01 T04020137  RH  021%=      5-min Rain = 0
KLA1 112337Z 14011KT 40/14 A2996 RMK A01 T04020137  RH  021%=      5-min Rain = 0
KLA1 112338Z 16010KT 40/14 A2996 RMK A01 T04020136  RH  021%=      5-min Rain = 0
KLA1 112339Z 16011KT 40/14 A2996 RMK A01 T04000136  RH  021%=      5-min Rain = 0
KLA1 112340Z 16010KT 40/14 A2996 RMK A01 T03990136  RH  021%=      5-min Rain = 0
KLA1 112341Z 16010G15KT 40/13 A2996 RMK A01 T04000134  RH  021%=      5-min Rain = 0
KLA1 112342Z 15013KT 40/13 A2996 RMK A01 T04000133  RH  021%=      5-min Rain = 0
KLA1 112343Z 13010KT 40/13 A2996 RMK A01 T04000131  RH  020%=      5-min Rain = 0
KLA1 112344Z 14009KT 40/13 A2996 RMK A01 T04000129  RH  020%=      5-min Rain = 0
KLA1 112345Z 15008KT 40/13 A2996 RMK A01 T03990129  RH  020%=      5-min Rain = 0
KLA1 112346Z 14007KT 40/13 A2996 RMK A01 T03990130  RH  020%=      5-min Rain = 0
KLA1 112347Z 14011G17KT 40/13 A2996 RMK A01 T04000130  RH  020%=      5-min Rain = 0
KLA1 112348Z 14012KT 40/13 A2996 RMK A01 T04010129  RH  020%=      5-min Rain = 0
KLA1 112349Z 14013KT 40/13 A2996 RMK A01 T04010129  RH  020%=      5-min Rain = 0
KLA1 112350Z 15013KT 40/13 A2996 RMK A01 T04000129  RH  020%=      5-min Rain = 0
KLA1 112351Z 14010KT 40/13 A2996 RMK A01 T04000129  RH  020%=      5-min Rain = 0
KLA1 112352Z 15008KT 40/13 A2996 RMK A01 T04000127  RH  020%=      5-min Rain = 0
KLA1 112353Z 15007KT 40/13 A2996 RMK A01 T04000127  RH  020%=      5-min Rain = 0
KLA1 112354Z 16006KT 40/13 A2996 RMK A01 T04000128  RH  020%=      5-min Rain = 0
KLA1 112355Z 15008KT 40/13 A2996 RMK A01 T04010127  RH  020%=      5-min Rain = 0
KLA1 112356Z 14010KT 40/13 A2996 RMK A01 T04020127  RH  020%=      5-min Rain = 0
KLA1 112357Z 13008KT 40/13 A2996 RMK A01 T04030127  RH  020%=      5-min Rain = 0
KLA1 112358Z 14008KT 40/13 A2996 RMK A01 T04030126  RH  020%=      5-min Rain = 0
KLA1 112359Z 15010KT 40/13 A2996 RMK A01 T04020127  RH  020%=      5-min Rain = 0
KLA1 120000Z 14011KT 40/13 A2996 RMK A01 T04020127  RH  020%=      5-min Rain = 0
KLA1 120001Z 15010KT 40/13 A2996 RMK A01 T04020126  RH  020%=      5-min Rain = 0
KLA1 120002Z 17009KT 40/13 A2996 RMK A01 T04010125  RH  019%=      5-min Rain = 0
KLA1 120003Z 16011KT 40/12 A2996 RMK A01 T04010122  RH  019%=      5-min Rain = 0
KLA1 120004Z 15010KT 40/12 A2996 RMK A01 T04000122  RH  019%=      5-min Rain = 0
KLA1 120005Z 16010KT 40/12 A2996 RMK A01 T04000121  RH  019%=      5-min Rain = 0
KLA1 120006Z 14011KT 40/12 A2997 RMK A01 T04000123  RH  019%=      5-min Rain = 0
KLA1 120007Z 14012KT 40/12 A2997 RMK A01 T03990124  RH  020%=      5-min Rain = 0
KLA1 120008Z 14010KT 40/13 A2997 RMK A01 T03990125  RH  020%=      5-min Rain = 0
KLA1 120009Z 14012KT 40/12 A2997 RMK A01 T03990124  RH  020%=      5-min Rain = 0
KLA1 120010Z 13009KT 40/13 A2997 RMK A01 T03990125  RH  020%=      5-min Rain = 0
KLA1 120011Z 14008KT 40/13 A2997 RMK A01 T03980126  RH  020%=      5-min Rain = 0
KLA1 120012Z 15009KT 40/13 A2997 RMK A01 T03990126  RH  020%=      5-min Rain = 0
KLA1 120013Z 16009KT 40/12 A2997 RMK A01 T04000124  RH  020%=      5-min Rain = 0
KLA1 120014Z 15009KT 40/12 A2997 RMK A01 T03990124  RH  020%=      5-min Rain = 0
KLA1 120015Z 16011KT 40/12 A2997 RMK A01 T03990122  RH  019%=      5-min Rain = 0
KLA1 120016Z 16010KT 40/12 A2997 RMK A01 T03980119  RH  019%=      5-min Rain = 0
KLA1 120017Z 17009KT 40/12 A2997 RMK A01 T03970118  RH  019%=      5-min Rain = 0
KLA1 120018Z 17009KT 40/12 A2997 RMK A01 T03970117  RH  019%=      5-min Rain = 0
KLA1 120019Z 17008KT 40/12 A2997 RMK A01 T03960119  RH  019%=      5-min Rain = 0
KLA1 120020Z 17007KT 40/12 A2997 RMK A01 T03960120  RH  019%=      5-min Rain = 0
KLA1 120021Z 15009KT 40/12 A2997 RMK A01 T03970120  RH  019%=      5-min Rain = 0
KLA1 120022Z 15010KT 40/12 A2997 RMK A01 T03970119  RH  019%=      5-min Rain = 0
KLA1 120023Z 14012KT 40/12 A2997 RMK A01 T03970120  RH  019%=      5-min Rain = 0
KLA1 120024Z 14012KT 40/12 A2997 RMK A01 T03970120  RH  019%=      5-min Rain = 0
KLA1 120025Z 13010KT 40/12 A2997 RMK A01 T03970120  RH  019%=      5-min Rain = 0
KLA1 120026Z 12009KT 40/12 A2997 RMK A01 T03960119  RH  019%=      5-min Rain = 0
KLA1 120027Z 13009KT 40/12 A2997 RMK A01 T03960119  RH  019%=      5-min Rain = 0
KLA1 120028Z 14008KT 40/12 A2997 RMK A01 T03960118  RH  019%=      5-min Rain = 0
KLA1 120029Z 14011KT 40/12 A2997 RMK A01 T03970119  RH  019%=      5-min Rain = 0
KLA1 120030Z 14012KT 40/12 A2997 RMK A01 T03970119  RH  019%=      5-min Rain = 0
KLA1 120031Z 14012KT 40/12 A2997 RMK A01 T03970119  RH  019%=      5-min Rain = 0
KLA1 120032Z 14011KT 40/12 A2997 RMK A01 T03950119  RH  019%=      5-min Rain = 0
KLA1 120033Z 14009KT 39/12 A2997 RMK A01 T03940120  RH  020%=      5-min Rain = 0
KLA1 120034Z 15011KT 39/12 A2997 RMK A01 T03930120  RH  020%=      5-min Rain = 0
KLA1 120035Z 15011KT 39/12 A2996 RMK A01 T03930120  RH  020%=      5-min Rain = 0
KLA1 120036Z 15012KT 39/12 A2997 RMK A01 T03930118  RH  019%=      5-min Rain = 0
KLA1 120037Z 15010KT 39/12 A2997 RMK A01 T03930118  RH  019%=      5-min Rain = 0
KLA1 120038Z 16009KT 39/12 A2997 RMK A01 T03930117  RH  019%=      5-min Rain = 0
KLA1 120039Z 16011KT 39/12 A2996 RMK A01 T03930117  RH  019%=      5-min Rain = 0
KLA1 120040Z 17010KT 39/12 A2996 RMK A01 T03930117  RH  019%=      5-min Rain = 0
KLA1 120041Z 15012KT 39/12 A2996 RMK A01 T03920117  RH  019%=      5-min Rain = 0
KLA1 120042Z 15013KT 39/12 A2997 RMK A01 T03920116  RH  019%=      5-min Rain = 0
KLA1 120043Z 14012KT 39/12 A2997 RMK A01 T03920115  RH  019%=      5-min Rain = 0
KLA1 120044Z 14010KT 39/11 A2997 RMK A01 T03910114  RH  019%=      5-min Rain = 0
KLA1 120045Z 14010KT 39/11 A2997 RMK A01 T03920114  RH  019%=      5-min Rain = 0
KLA1 120046Z 15010KT 39/12 A2997 RMK A01 T03910118  RH  020%=      5-min Rain = 0
KLA1 120047Z 15009KT 39/12 A2997 RMK A01 T03910119  RH  020%=      5-min Rain = 0
KLA1 120048Z 15008KT 39/12 A2997 RMK A01 T03910121  RH  020%=      5-min Rain = 0
KLA1 120049Z 15007KT 39/12 A2997 RMK A01 T03900121  RH  020%=      5-min Rain = 0
KLA1 120050Z 14008KT 39/12 A2997 RMK A01 T03900121  RH  020%=      5-min Rain = 0
KLA1 120051Z 15008KT 39/12 A2997 RMK A01 T03910120  RH  020%=      5-min Rain = 0
KLA1 120052Z 15010KT 39/12 A2997 RMK A01 T03920120  RH  020%=      5-min Rain = 0
KLA1 120053Z 15009KT 39/12 A2997 RMK A01 T03920119  RH  020%=      5-min Rain = 0
KLA1 120054Z 14011KT 39/12 A2997 RMK A01 T03910118  RH  020%=      5-min Rain = 0
KLA1 120055Z 15010KT 39/12 A2997 RMK A01 T03900117  RH  020%=      5-min Rain = 0
KLA1 120056Z 15010KT 39/12 A2997 RMK A01 T03890117  RH  020%=      5-min Rain = 0
KLA1 120057Z 14011KT 39/12 A2997 RMK A01 T03900118  RH  020%=      5-min Rain = 0
KLA1 120058Z 14011KT 39/12 A2997 RMK A01 T03890120  RH  020%=      5-min Rain = 0
KLA1 120059Z 14010KT 39/12 A2997 RMK A01 T03880119  RH  020%=      5-min Rain = 0
KLA1 120100Z 14010KT 39/12 A2997 RMK A01 T03880119  RH  020%=      5-min Rain = 0
KLA1 120101Z 15012KT 39/12 A2997 RMK A01 T03870119  RH  020%=      5-min Rain = 0
KLA1 120102Z 15012KT 39/12 A2997 RMK A01 T03870120  RH  020%=      5-min Rain = 0
KLA1 120103Z 14010KT 39/12 A2997 RMK A01 T03860121  RH  021%=      5-min Rain = 0
KLA1 120104Z 14009KT 39/12 A2997 RMK A01 T03860122  RH  021%=      5-min Rain = 0
KLA1 120105Z 15011G16KT 39/12 A2997 RMK A01 T03860123  RH  021%=      5-min Rain = 0
KLA1 120106Z 15012KT 39/12 A2997 RMK A01 T03850121  RH  021%=      5-min Rain = 0
KLA1 120107Z 14011KT 38/12 A2997 RMK A01 T03840121  RH  021%=      5-min Rain = 0
KLA1 120108Z 14008KT 38/12 A2997 RMK A01 T03840121  RH  021%=      5-min Rain = 0
KLA1 120109Z 14010KT 38/12 A2997 RMK A01 T03840122  RH  021%=      5-min Rain = 0
KLA1 120110Z 14010KT 38/12 A2997 RMK A01 T03830123  RH  021%=      5-min Rain = 0
KLA1 120111Z 14009KT 38/12 A2997 RMK A01 T03830122  RH  021%=      5-min Rain = 0
KLA1 120112Z 15009KT 38/12 A2997 RMK A01 T03830122  RH  021%=      5-min Rain = 0
KLA1 120113Z 15008KT 38/12 A2997 RMK A01 T03830122  RH  021%=      5-min Rain = 0
KLA1 120114Z 15011KT 38/12 A2997 RMK A01 T03830122  RH  021%=      5-min Rain = 0
KLA1 120115Z 14011KT 38/12 A2997 RMK A01 T03820122  RH  021%=      5-min Rain = 0
KLA1 120116Z 14010KT 38/12 A2997 RMK A01 T03820121  RH  021%=      5-min Rain = 0
KLA1 120117Z 15009G14KT 38/12 A2997 RMK A01 T03820121  RH  021%=      5-min Rain = 0
KLA1 120118Z 16011KT 38/12 A2996 RMK A01 T03810120  RH  021%=      5-min Rain = 0
KLA1 120119Z 15012KT 38/12 A2996 RMK A01 T03810120  RH  021%=      5-min Rain = 0
KLA1 120120Z 15012KT 38/12 A2996 RMK A01 T03810121  RH  021%=      5-min Rain = 0
KLA1 120121Z 15012KT 38/12 A2997 RMK A01 T03800124  RH  022%=      5-min Rain = 0
KLA1 120122Z 15012KT 38/12 A2997 RMK A01 T03800123  RH  022%=      5-min Rain = 0
KLA1 120123Z 15010KT 38/12 A2997 RMK A01 T03790122  RH  021%=      5-min Rain = 0
KLA1 120124Z 15009KT 38/12 A2997 RMK A01 T03790123  RH  022%=      5-min Rain = 0
KLA1 120125Z 15008KT 38/12 A2996 RMK A01 T03790123  RH  022%=      5-min Rain = 0
KLA1 120126Z 14008KT 38/13 A2997 RMK A01 T03790126  RH  022%=      5-min Rain = 0
KLA1 120127Z 14009KT 38/13 A2996 RMK A01 T03780127  RH  022%=      5-min Rain = 0
KLA1 120128Z 14012KT 38/13 A2996 RMK A01 T03780130  RH  023%=      5-min Rain = 0
KLA1 120129Z 15010KT 38/13 A2996 RMK A01 T03770132  RH  023%=      5-min Rain = 0
KLA1 120130Z 16011KT 38/13 A2996 RMK A01 T03770133  RH  024%=      5-min Rain = 0
KLA1 120131Z 16012KT 38/13 A2996 RMK A01 T03760134  RH  024%=      5-min Rain = 0
KLA1 120132Z 16012KT 38/14 A2996 RMK A01 T03750135  RH  024%=      5-min Rain = 0
KLA1 120133Z 15011KT 38/14 A2996 RMK A01 T03750135  RH  024%=      5-min Rain = 0
KLA1 120134Z 16009KT 37/13 A2996 RMK A01 T03740134  RH  024%=      5-min Rain = 0
KLA1 120135Z 16011KT 37/13 A2996 RMK A01 T03740134  RH  024%=      5-min Rain = 0
KLA1 120136Z 17010KT 37/13 A2996 RMK A01 T03740134  RH  024%=      5-min Rain = 0
KLA1 120137Z 17010KT 37/13 A2996 RMK A01 T03730133  RH  024%=      5-min Rain = 0
KLA1 120138Z 17011KT 37/13 A2996 RMK A01 T03730134  RH  024%=      5-min Rain = 0
KLA1 120139Z 16009KT 37/13 A2996 RMK A01 T03730134  RH  024%=      5-min Rain = 0
KLA1 120140Z 16007KT 37/13 A2996 RMK A01 T03720134  RH  024%=      5-min Rain = 0
KLA1 120141Z 16008KT 37/13 A2996 RMK A01 T03720134  RH  024%=      5-min Rain = 0
KLA1 120142Z 16007KT 37/13 A2996 RMK A01 T03710134  RH  024%=      5-min Rain = 0
KLA1 120143Z 16011KT 37/13 A2996 RMK A01 T03700134  RH  024%=      5-min Rain = 0
KLA1 120144Z 15008KT 37/13 A2996 RMK A01 T03700134  RH  024%=      5-min Rain = 0
KLA1 120145Z 16009KT 37/13 A2997 RMK A01 T03700134  RH  025%=      5-min Rain = 0
KLA1 120146Z 15012KT 37/13 A2997 RMK A01 T03700134  RH  024%=      5-min Rain = 0
KLA1 120147Z 15013KT 37/13 A2997 RMK A01 T03690132  RH  024%=      5-min Rain = 0
KLA1 120148Z 16010KT 37/13 A2997 RMK A01 T03690131  RH  024%=      5-min Rain = 0
KLA1 120149Z 16009KT 37/13 A2997 RMK A01 T03690131  RH  024%=      5-min Rain = 0
KLA1 120150Z 16010KT 37/13 A2997 RMK A01 T03690131  RH  024%=      5-min Rain = 0
KLA1 120151Z 15008G13KT 37/13 A2997 RMK A01 T03680131  RH  024%=      5-min Rain = 0
KLA1 120152Z 15011KT 37/13 A2997 RMK A01 T03680130  RH  024%=      5-min Rain = 0
KLA1 120153Z 15010KT 37/13 A2997 RMK A01 T03670129  RH  024%=      5-min Rain = 0
KLA1 120154Z 16011KT 37/13 A2997 RMK A01 T03670128  RH  024%=      5-min Rain = 0
KLA1 120155Z 16008KT 37/13 A2997 RMK A01 T03670128  RH  024%=      5-min Rain = 0
KLA1 120156Z 16010KT 37/13 A2997 RMK A01 T03670128  RH  024%=      5-min Rain = 0
KLA1 120157Z 15010KT 37/13 A2997 RMK A01 T03660127  RH  024%=      5-min Rain = 0
KLA1 120158Z 16008KT 37/13 A2997 RMK A01 T03660127  RH  024%=      5-min Rain = 0
KLA1 120159Z 16010KT 37/13 A2997 RMK A01 T03660126  RH  024%=      5-min Rain = 0
KLA1 120200Z 16010KT 37/13 A2997 RMK A01 T03660126  RH  024%=      5-min Rain = 0
KLA1 120201Z 17010KT 37/13 A2997 RMK A01 T03660125  RH  024%=      5-min Rain = 0
KLA1 120202Z 15008KT 37/13 A2997 RMK A01 T03650125  RH  024%=      5-min Rain = 0
KLA1 120203Z 16007KT 37/13 A2998 RMK A01 T03650125  RH  024%=      5-min Rain = 0
KLA1 120204Z 16008KT 36/13 A2998 RMK A01 T03640125  RH  024%=      5-min Rain = 0
KLA1 120205Z 17010KT 36/13 A2998 RMK A01 T03640125  RH  024%=      5-min Rain = 0
KLA1 120206Z 16011KT 36/12 A2998 RMK A01 T03640123  RH  024%=      5-min Rain = 0
KLA1 120207Z 15010KT 36/12 A2998 RMK A01 T03640123  RH  024%=      5-min Rain = 0
KLA1 120208Z 15009KT 37/12 A2998 RMK A01 T03650123  RH  023%=      5-min Rain = 0
KLA1 120209Z 16009KT 37/12 A2998 RMK A01 T03650123  RH  023%=      5-min Rain = 0
KLA1 120210Z 16008KT 36/12 A2998 RMK A01 T03640123  RH  023%=      5-min Rain = 0
KLA1 120211Z 16007KT 36/12 A2998 RMK A01 T03640123  RH  024%=      5-min Rain = 0
KLA1 120212Z 16007KT 36/12 A2998 RMK A01 T03630123  RH  024%=      5-min Rain = 0
KLA1 120213Z 16007KT 36/12 A2998 RMK A01 T03630123  RH  024%=      5-min Rain = 0
KLA1 120214Z 16006KT 36/12 A2998 RMK A01 T03620122  RH  024%=      5-min Rain = 0
KLA1 120215Z 16006KT 36/12 A2998 RMK A01 T03610123  RH  024%=      5-min Rain = 0
KLA1 120216Z 16009KT 36/12 A2998 RMK A01 T03600122  RH  024%=      5-min Rain = 0
KLA1 120217Z 16010KT 36/12 A2998 RMK A01 T03600122  RH  024%=      5-min Rain = 0
KLA1 120218Z 16008KT 36/12 A2998 RMK A01 T03610121  RH  024%=      5-min Rain = 0
KLA1 120219Z 17009KT 36/12 A2998 RMK A01 T03610121  RH  024%=      5-min Rain = 0
KLA1 120220Z 15007KT 36/12 A2998 RMK A01 T03610121  RH  024%=      5-min Rain = 0
KLA1 120221Z 16008KT 36/12 A2998 RMK A01 T03610121  RH  024%=      5-min Rain = 0
KLA1 120222Z 16009KT 36/12 A2998 RMK A01 T03610121  RH  024%=      5-min Rain = 0
KLA1 120223Z 16008KT 36/12 A2998 RMK A01 T03610121  RH  024%=      5-min Rain = 0
KLA1 120224Z 16008KT 36/12 A2998 RMK A01 T03610121  RH  024%=      5-min Rain = 0
KLA1 120225Z 16007KT 36/12 A2998 RMK A01 T03600121  RH  024%=      5-min Rain = 0
KLA1 120226Z 15006KT 36/12 A2998 RMK A01 T03590120  RH  024%=      5-min Rain = 0
KLA1 120227Z 16008KT 36/12 A2998 RMK A01 T03580120  RH  024%=      5-min Rain = 0
KLA1 120228Z 16010KT 36/12 A2998 RMK A01 T03590120  RH  024%=      5-min Rain = 0
KLA1 120229Z 16010KT 36/12 A2998 RMK A01 T03590120  RH  024%=      5-min Rain = 0
KLA1 120230Z 15009KT 36/12 A2998 RMK A01 T03590120  RH  024%=      5-min Rain = 0
KLA1 120231Z 16009KT 36/12 A2998 RMK A01 T03590119  RH  024%=      5-min Rain = 0
KLA1 120232Z 16008KT 36/12 A2998 RMK A01 T03590120  RH  024%=      5-min Rain = 0
KLA1 120233Z 15010KT 36/12 A2998 RMK A01 T03590120  RH  024%=      5-min Rain = 0
KLA1 120234Z 15010KT 36/12 A2998 RMK A01 T03590120  RH  024%=      5-min Rain = 0
KLA1 120235Z 15009KT 36/12 A2998 RMK A01 T03590120  RH  024%=      5-min Rain = 0
KLA1 120236Z 16009KT 36/12 A2998 RMK A01 T03590120  RH  024%=      5-min Rain = 0
KLA1 120237Z 16010KT 36/12 A2998 RMK A01 T03590119  RH  024%=      5-min Rain = 0
KLA1 120238Z 16010KT 36/12 A2998 RMK A01 T03590120  RH  024%=      5-min Rain = 0
KLA1 120239Z 15010KT 36/12 A2998 RMK A01 T03590119  RH  024%=      5-min Rain = 0
KLA1 120240Z 15008KT 36/12 A2998 RMK A01 T03590119  RH  024%=      5-min Rain = 0
KLA1 120241Z 16008KT 36/12 A2998 RMK A01 T03580119  RH  024%=      5-min Rain = 0
KLA1 120242Z 16010KT 36/12 A2998 RMK A01 T03570119  RH  024%=      5-min Rain = 0
KLA1 120243Z 15008KT 36/12 A2998 RMK A01 T03570118  RH  024%=      5-min Rain = 0
KLA1 120244Z 16007KT 36/12 A2998 RMK A01 T03570118  RH  024%=      5-min Rain = 0
KLA1 120245Z 16007KT 36/12 A2998 RMK A01 T03560118  RH  024%=      5-min Rain = 0
KLA1 120246Z 17008KT 36/12 A2998 RMK A01 T03550118  RH  024%=      5-min Rain = 0
KLA1 120247Z 16007KT 36/12 A2998 RMK A01 T03550118  RH  024%=      5-min Rain = 0
KLA1 120248Z 16008KT 35/12 A2998 RMK A01 T03540117  RH  024%=      5-min Rain = 0
KLA1 120249Z 16007KT 36/12 A2998 RMK A01 T03550117  RH  024%=      5-min Rain = 0
KLA1 120250Z 16009KT 36/12 A2998 RMK A01 T03550117  RH  024%=      5-min Rain = 0
KLA1 120251Z 17009KT 35/12 A2998 RMK A01 T03540117  RH  024%=      5-min Rain = 0
KLA1 120252Z 16011KT 36/12 A2998 RMK A01 T03550116  RH  024%=      5-min Rain = 0
KLA1 120253Z 16010KT 36/12 A2998 RMK A01 T03560116  RH  024%=      5-min Rain = 0
KLA1 120254Z 15006KT 36/12 A2999 RMK A01 T03570117  RH  023%=      5-min Rain = 0
KLA1 120255Z 15007KT 36/12 A2999 RMK A01 T03560116  RH  024%=      5-min Rain = 0
KLA1 120256Z 15006KT 36/12 A2999 RMK A01 T03550117  RH  024%=      5-min Rain = 0
KLA1 120257Z 16006G12KT 35/12 A2999 RMK A01 T03530117  RH  024%=      5-min Rain = 0
KLA1 120258Z 15007KT 35/12 A2999 RMK A01 T03510117  RH  024%=      5-min Rain = 0
KLA1 120259Z 16009KT 35/12 A2999 RMK A01 T03510116  RH  024%=      5-min Rain = 0
KLA1 120300Z 15007KT 35/12 A2999 RMK A01 T03530116  RH  024%=      5-min Rain = 0
KLA1 120301Z 16007KT 35/12 A2999 RMK A01 T03530116  RH  024%=      5-min Rain = 0
KLA1 120302Z 13004KT 35/12 A2999 RMK A01 T03530116  RH  024%=      5-min Rain = 0
KLA1 120303Z 16005KT 35/12 A2999 RMK A01 T03520118  RH  024%=      5-min Rain = 0
KLA1 120304Z 14005KT 35/12 A2999 RMK A01 T03490116  RH  024%=      5-min Rain = 0
KLA1 120305Z 15005KT 35/12 A2999 RMK A01 T03480117  RH  025%=      5-min Rain = 0
KLA1 120306Z 15004KT 35/12 A2999 RMK A01 T03470117  RH  025%=      5-min Rain = 0
KLA1 120307Z 14006KT 35/12 A2999 RMK A01 T03460117  RH  025%=      5-min Rain = 0
KLA1 120308Z 14004KT 35/12 A2999 RMK A01 T03450118  RH  025%=      5-min Rain = 0
KLA1 120309Z 16006KT 34/12 A2999 RMK A01 T03430117  RH  025%=      5-min Rain = 0
KLA1 120310Z 15005KT 34/12 A2999 RMK A01 T03430117  RH  025%=      5-min Rain = 0
KLA1 120311Z 15006KT 34/12 A2999 RMK A01 T03430117  RH  025%=      5-min Rain = 0
KLA1 120312Z 12004KT 34/12 A2999 RMK A01 T03430117  RH  025%=      5-min Rain = 0
KLA1 120313Z 12004KT 34/12 A2999 RMK A01 T03420118  RH  026%=      5-min Rain = 0
KLA1 120314Z 13003KT 34/12 A2999 RMK A01 T03410119  RH  026%=      5-min Rain = 0
KLA1 120315Z 13004KT 34/12 A2999 RMK A01 T03390118  RH  026%=      5-min Rain = 0
KLA1 120316Z 13004KT 34/12 A2999 RMK A01 T03380118  RH  026%=      5-min Rain = 0
KLA1 120317Z 12004KT 34/12 A2999 RMK A01 T03370119  RH  027%=      5-min Rain = 0
KLA1 120318Z 12004KT 34/12 A2999 RMK A01 T03360118  RH  027%=      5-min Rain = 0
KLA1 120319Z 13004KT 34/12 A2999 RMK A01 T03350118  RH  027%=      5-min Rain = 0
KLA1 120320Z 14004KT 33/12 A2999 RMK A01 T03340118  RH  027%=      5-min Rain = 0
KLA1 120321Z 13004KT 33/12 A2999 RMK A01 T03330118  RH  027%=      5-min Rain = 0
KLA1 120322Z 12004KT 33/12 A2999 RMK A01 T03330118  RH  027%=      5-min Rain = 0
KLA1 120323Z 13005KT 33/12 A2999 RMK A01 T03330119  RH  027%=      5-min Rain = 0
KLA1 120324Z 13004KT 33/12 A2999 RMK A01 T03320118  RH  027%=      5-min Rain = 0
KLA1 120325Z 13004KT 33/12 A2999 RMK A01 T03320118  RH  027%=      5-min Rain = 0
KLA1 120326Z 13004KT 33/12 A2999 RMK A01 T03310118  RH  027%=      5-min Rain = 0
KLA1 120327Z 13004KT 33/12 A2999 RMK A01 T03310118  RH  027%=      5-min Rain = 0
KLA1 120328Z 13003KT 33/12 A2999 RMK A01 T03320119  RH  027%=      5-min Rain = 0
KLA1 120329Z 13005KT 33/12 A2999 RMK A01 T03310118  RH  027%=      5-min Rain = 0
KLA1 120330Z 13005KT 33/12 A2999 RMK A01 T03310118  RH  027%=      5-min Rain = 0
KLA1 120331Z 12004KT 33/12 A2999 RMK A01 T03310118  RH  027%=      5-min Rain = 0
KLA1 120332Z 13005KT 33/12 A2999 RMK A01 T03310118  RH  027%=      5-min Rain = 0
KLA1 120333Z 14005KT 33/12 A2999 RMK A01 T03300118  RH  027%=      5-min Rain = 0
KLA1 120334Z 13004KT 33/12 A2999 RMK A01 T03310118  RH  027%=      5-min Rain = 0
KLA1 120335Z 13004KT 33/12 A2999 RMK A01 T03310119  RH  027%=      5-min Rain = 0
KLA1 120336Z 13004KT 33/12 A2999 RMK A01 T03300118  RH  027%=      5-min Rain = 0
KLA1 120337Z 13005KT 33/12 A2999 RMK A01 T03300119  RH  028%=      5-min Rain = 0
KLA1 120338Z 13004KT 33/12 A2999 RMK A01 T03300119  RH  028%=      5-min Rain = 0
KLA1 120339Z 13004KT 33/12 A2999 RMK A01 T03300119  RH  028%=      5-min Rain = 0
KLA1 120340Z 13004KT 33/12 A2999 RMK A01 T03300119  RH  028%=      5-min Rain = 0
KLA1 120341Z 13004KT 33/12 A2999 RMK A01 T03300118  RH  028%=      5-min Rain = 0
KLA1 120342Z 14006G11KT 33/12 A2999 RMK A01 T03300118  RH  028%=      5-min Rain = 0
KLA1 120343Z 13006KT 33/12 A2999 RMK A01 T03320118  RH  027%=      5-min Rain = 0
KLA1 120344Z 12005KT 33/12 A2999 RMK A01 T03340119  RH  027%=      5-min Rain = 0
KLA1 120345Z 12005KT 33/12 A2999 RMK A01 T03340118  RH  027%=      5-min Rain = 0
KLA1 120346Z 12005KT 33/12 A2999 RMK A01 T03330118  RH  027%=      5-min Rain = 0
KLA1 120347Z 13004KT 33/12 A2999 RMK A01 T03320118  RH  027%=      5-min Rain = 0
KLA1 120348Z 13005KT 33/12 A2999 RMK A01 T03310118  RH  027%=      5-min Rain = 0
KLA1 120349Z 13004KT 33/12 A2999 RMK A01 T03310118  RH  027%=      5-min Rain = 0
KLA1 120350Z 13005KT 33/12 A2999 RMK A01 T03310119  RH  027%=      5-min Rain = 0
KLA1 120351Z 13004KT 33/12 A2999 RMK A01 T03310119  RH  028%=      5-min Rain = 0
KLA1 120352Z 13005KT 33/12 A30 RMK A01 T03310119  RH  028%=      5-min Rain = 0
KLA1 120353Z 14005KT 33/12 A30 RMK A01 T03300119  RH  028%=      5-min Rain = 0
KLA1 120354Z 12004KT 33/12 A30 RMK A01 T03300119  RH  028%=      5-min Rain = 0
KLA1 120355Z 13004KT 33/12 A30 RMK A01 T03300119  RH  028%=      5-min Rain = 0
KLA1 120356Z 13005KT 33/12 A30 RMK A01 T03290119  RH  028%=      5-min Rain = 0
KLA1 120357Z 12005KT 33/12 A30 RMK A01 T03290119  RH  028%=      5-min Rain = 0
KLA1 120358Z 12005KT 33/12 A30 RMK A01 T03290119  RH  028%=      5-min Rain = 0
KLA1 120359Z 11005KT 33/12 A30 RMK A01 T03290119  RH  028%=      5-min Rain = 0
KLA1 120400Z 12005KT 33/12 A30 RMK A01 T03280119  RH  028%=      5-min Rain = 0
KLA1 120401Z 12005KT 33/12 A30 RMK A01 T03280119  RH  028%=      5-min Rain = 0
KLA1 120402Z 12006KT 33/12 A2999 RMK A01 T03270119  RH  028%=      5-min Rain = 0
KLA1 120403Z 11005KT 33/12 A2999 RMK A01 T03270120  RH  028%=      5-min Rain = 0
KLA1 120404Z 11005KT 33/12 A2999 RMK A01 T03270120  RH  028%=      5-min Rain = 0
KLA1 120405Z 12004KT 33/12 A2999 RMK A01 T03260120  RH  028%=      5-min Rain = 0
KLA1 120406Z 11006KT 33/12 A2999 RMK A01 T03260120  RH  028%=      5-min Rain = 0
KLA1 120407Z 11006KT 33/12 A2999 RMK A01 T03260120  RH  028%=      5-min Rain = 0
KLA1 120408Z 13006KT 33/12 A2999 RMK A01 T03250119  RH  028%=      5-min Rain = 0
KLA1 120409Z 12005KT 33/12 A2999 RMK A01 T03260120  RH  028%=      5-min Rain = 0
KLA1 120410Z 13004KT 33/12 A2999 RMK A01 T03270120  RH  028%=      5-min Rain = 0
KLA1 120411Z 14006KT 33/12 A2999 RMK A01 T03270120  RH  028%=      5-min Rain = 0
KLA1 120412Z 13006KT 33/12 A2999 RMK A01 T03270119  RH  028%=      5-min Rain = 0
KLA1 120413Z 12005KT 33/12 A2999 RMK A01 T03280120  RH  028%=      5-min Rain = 0
KLA1 120414Z 12005KT 33/12 A2999 RMK A01 T03290120  RH  028%=      5-min Rain = 0
KLA1 120415Z 11005KT 33/12 A2999 RMK A01 T03280120  RH  028%=      5-min Rain = 0
KLA1 120416Z 12005KT 33/12 A2999 RMK A01 T03270121  RH  028%=      5-min Rain = 0
KLA1 120417Z 11005KT 33/12 A2999 RMK A01 T03250120  RH  029%=      5-min Rain = 0
KLA1 120418Z 12005KT 33/12 A2999 RMK A01 T03250120  RH  029%=      5-min Rain = 0
KLA1 120419Z 12005KT 32/12 A2999 RMK A01 T03240120  RH  029%=      5-min Rain = 0
KLA1 120420Z 12005KT 32/12 A2999 RMK A01 T03240120  RH  029%=      5-min Rain = 0
KLA1 120421Z 13004KT 32/12 A2999 RMK A01 T03240120  RH  029%=      5-min Rain = 0
KLA1 120422Z 13006KT 32/12 A2999 RMK A01 T03240120  RH  029%=      5-min Rain = 0
KLA1 120423Z 12006KT 33/12 A2999 RMK A01 T03270120  RH  028%=      5-min Rain = 0
KLA1 120424Z 13006KT 33/12 A2999 RMK A01 T03280120  RH  028%=      5-min Rain = 0
KLA1 120425Z 11006KT 33/12 A2999 RMK A01 T03280120  RH  028%=      5-min Rain = 0
KLA1 120426Z 11006KT 33/12 A2999 RMK A01 T03290120  RH  028%=      5-min Rain = 0
KLA1 120427Z 12006KT 33/12 A2999 RMK A01 T03280121  RH  028%=      5-min Rain = 0
KLA1 120428Z 13006KT 33/12 A2999 RMK A01 T03270121  RH  028%=      5-min Rain = 0
KLA1 120429Z 12005KT 33/12 A2999 RMK A01 T03270121  RH  028%=      5-min Rain = 0
KLA1 120430Z 12004KT 33/12 A2999 RMK A01 T03270120  RH  028%=      5-min Rain = 0
KLA1 120431Z 12006KT 33/12 A2999 RMK A01 T03270120  RH  028%=      5-min Rain = 0
KLA1 120432Z 13005KT 33/12 A2999 RMK A01 T03270120  RH  028%=      5-min Rain = 0
KLA1 120433Z 11004KT 33/12 A2999 RMK A01 T03270120  RH  028%=      5-min Rain = 0
KLA1 120434Z 12005KT 33/12 A2999 RMK A01 T03270120  RH  028%=      5-min Rain = 0
KLA1 120435Z 13004KT 33/12 A2999 RMK A01 T03260120  RH  028%=      5-min Rain = 0
KLA1 120436Z 11005KT 33/12 A2999 RMK A01 T03260120  RH  029%=      5-min Rain = 0
KLA1 120437Z 11004KT 33/12 A2999 RMK A01 T03260120  RH  029%=      5-min Rain = 0
KLA1 120438Z 12005KT 33/12 A2999 RMK A01 T03260120  RH  029%=      5-min Rain = 0
KLA1 120439Z 13006KT 33/12 A2999 RMK A01 T03250120  RH  029%=      5-min Rain = 0
KLA1 120440Z 12005KT 33/12 A2999 RMK A01 T03250120  RH  029%=      5-min Rain = 0
KLA1 120441Z 11005KT 33/12 A2999 RMK A01 T03250120  RH  029%=      5-min Rain = 0
KLA1 120442Z 11005KT 32/12 A2999 RMK A01 T03240120  RH  029%=      5-min Rain = 0
KLA1 120443Z 11005KT 32/12 A2999 RMK A01 T03240120  RH  029%=      5-min Rain = 0
KLA1 120444Z 11005KT 32/12 A2999 RMK A01 T03230120  RH  029%=      5-min Rain = 0
KLA1 120445Z 11005KT 32/12 A2999 RMK A01 T03230120  RH  029%=      5-min Rain = 0
KLA1 120446Z 12005KT 32/12 A2999 RMK A01 T03230120  RH  029%=      5-min Rain = 0
KLA1 120447Z 13006KT 32/12 A2999 RMK A01 T03230120  RH  029%=      5-min Rain = 0
KLA1 120448Z 12005KT 32/12 A2999 RMK A01 T03240120  RH  029%=      5-min Rain = 0
KLA1 120449Z 11005KT 32/12 A2999 RMK A01 T03240120  RH  029%=      5-min Rain = 0
KLA1 120450Z 11004KT 32/12 A2999 RMK A01 T03240120  RH  029%=      5-min Rain = 0
KLA1 120451Z 12004KT 32/12 A2999 RMK A01 T03240120  RH  029%=      5-min Rain = 0
KLA1 120452Z 12005KT 32/12 A2999 RMK A01 T03240120  RH  029%=      5-min Rain = 0
KLA1 120453Z 13005KT 32/12 A2999 RMK A01 T03230119  RH  029%=      5-min Rain = 0
KLA1 120454Z 14007KT 32/12 A2999 RMK A01 T03230119  RH  029%=      5-min Rain = 0
KLA1 120455Z 14007KT 32/12 A2999 RMK A01 T03230118  RH  029%=      5-min Rain = 0
KLA1 120456Z 14005KT 32/12 A2999 RMK A01 T03240118  RH  028%=      5-min Rain = 0
KLA1 120457Z 14004KT 32/12 A2999 RMK A01 T03240119  RH  029%=      5-min Rain = 0
KLA1 120458Z 15004KT 32/12 A2999 RMK A01 T03240119  RH  029%=      5-min Rain = 0
KLA1 120459Z 14005KT 32/12 A2999 RMK A01 T03230118  RH  029%=      5-min Rain = 0

Page generated in 0.1244 seconds.